Observation data for Earth on 11/13/2019      Previous  Date       Current Mesonet Observations  Soil Data  Daily Summary Page  Observations in Plain Language
KEA1 130600Z 20014KT M00/M10 A3015 RMK A01 T10011099  RH  048%=      5-min Rain = 0
KEA1 130601Z 21014KT 00/10 A3015 RMK A01 T00-00-98  RH  048%=      5-min Rain = 0
KEA1 130602Z 21015KT 00/10 A3015 RMK A01 T00000-98  RH  047%=      5-min Rain = 0
KEA1 130603Z 21014KT 00/M10 A3015 RMK A01 T00011099  RH  047%=      5-min Rain = 0
KEA1 130604Z 21013KT 00/M10 A3015 RMK A01 T00011098  RH  047%=      5-min Rain = 0
KEA1 130605Z 21012KT 00/M10 A3015 RMK A01 T00021097  RH  048%=      5-min Rain = 0
KEA1 130606Z 21013KT 00/M10 A3014 RMK A01 T00021096  RH  048%=      5-min Rain = 0
KEA1 130607Z 21012KT 00/M10 A3015 RMK A01 T00021095  RH  048%=      5-min Rain = 0
KEA1 130608Z 21011KT 00/M09 A3015 RMK A01 T00031092  RH  049%=      5-min Rain = 0
KEA1 130609Z 21011KT 00/M09 A3015 RMK A01 T00021093  RH  049%=      5-min Rain = 0
KEA1 130610Z 21011KT 00/M09 A3014 RMK A01 T00021093  RH  049%=      5-min Rain = 0
KEA1 130611Z 21012KT 00/M10 A3014 RMK A01 T00021096  RH  048%=      5-min Rain = 0
KEA1 130612Z 21012G18KT 00/M10 A3014 RMK A01 T00011098  RH  047%=      5-min Rain = 0
KEA1 130613Z 21013KT 00/M10 A3014 RMK A01 T00011098  RH  047%=      5-min Rain = 0
KEA1 130614Z 21014KT 00/M10 A3014 RMK A01 T00011099  RH  047%=      5-min Rain = 0
KEA1 130615Z 22012KT 00/M10 A3014 RMK A01 T00011100  RH  047%=      5-min Rain = 0
KEA1 130616Z 21010KT 00/10 A3014 RMK A01 T00000-99  RH  047%=      5-min Rain = 0
KEA1 130617Z 21012KT 00/10 A3014 RMK A01 T00-00-100  RH  047%=      5-min Rain = 0
KEA1 130618Z 21011KT M00/M10 A3014 RMK A01 T10011101  RH  047%=      5-min Rain = 0
KEA1 130619Z 22013KT M00/M10 A3014 RMK A01 T10011096  RH  049%=      5-min Rain = 0
KEA1 130620Z 21012G18KT 00/M09 A3014 RMK A01 T00011092  RH  050%=      5-min Rain = 0
KEA1 130621Z 21014KT 00/M10 A3013 RMK A01 T00011095  RH  048%=      5-min Rain = 0
KEA1 130622Z 21012KT 00/M10 A3014 RMK A01 T00021095  RH  048%=      5-min Rain = 0
KEA1 130623Z 21012KT 00/M10 A3013 RMK A01 T00021096  RH  048%=      5-min Rain = 0
KEA1 130624Z 21012KT 00/M10 A3014 RMK A01 T00011097  RH  048%=      5-min Rain = 0
KEA1 130625Z 21012KT 00/M10 A3014 RMK A01 T00011095  RH  048%=      5-min Rain = 0
KEA1 130626Z 22010G15KT 00/M09 A3014 RMK A01 T00011094  RH  049%=      5-min Rain = 0
KEA1 130627Z 22009KT 00/M09 A3014 RMK A01 T00011090  RH  050%=      5-min Rain = 0
KEA1 130628Z 21009KT 00/M09 A3013 RMK A01 T00021088  RH  051%=      5-min Rain = 0
KEA1 130629Z 22010KT 00/M09 A3013 RMK A01 T00021089  RH  050%=      5-min Rain = 0
KEA1 130630Z 21011KT 00/M09 A3013 RMK A01 T00011087  RH  051%=      5-min Rain = 0
KEA1 130631Z 21013KT 00/M09 A3013 RMK A01 T00021090  RH  050%=      5-min Rain = 0
KEA1 130632Z 20013KT 00/M09 A3013 RMK A01 T00011093  RH  049%=      5-min Rain = 0
KEA1 130633Z 21013KT 00/M10 A3013 RMK A01 T00011095  RH  048%=      5-min Rain = 0
KEA1 130634Z 21013G18KT 00/M10 A3013 RMK A01 T00011096  RH  048%=      5-min Rain = 0
KEA1 130635Z 21015KT 00/M10 A3012 RMK A01 T00011098  RH  047%=      5-min Rain = 0
KEA1 130636Z 21014KT 00/M10 A3013 RMK A01 T00011100  RH  046%=      5-min Rain = 0
KEA1 130637Z 21014G19KT 00/M10 A3013 RMK A01 T00011099  RH  047%=      5-min Rain = 0
KEA1 130638Z 21011KT 00/M10 A3013 RMK A01 T00021096  RH  048%=      5-min Rain = 0
KEA1 130639Z 21013KT 00/M10 A3013 RMK A01 T00011096  RH  048%=      5-min Rain = 0
KEA1 130640Z 21011KT 00/M10 A3013 RMK A01 T00021096  RH  048%=      5-min Rain = 0
KEA1 130641Z 22012KT 00/M09 A3013 RMK A01 T00021094  RH  049%=      5-min Rain = 0
KEA1 130642Z 22012KT 00/M09 A3012 RMK A01 T00021090  RH  050%=      5-min Rain = 0
KEA1 130643Z 21010KT 00/M09 A3012 RMK A01 T00021090  RH  050%=      5-min Rain = 0
KEA1 130644Z 21010KT 00/M09 A3012 RMK A01 T00021092  RH  049%=      5-min Rain = 0
KEA1 130645Z 21011KT 00/M09 A3012 RMK A01 T00021094  RH  049%=      5-min Rain = 0
KEA1 130646Z 21010KT 00/M09 A3012 RMK A01 T00011094  RH  049%=      5-min Rain = 0
KEA1 130647Z 21010KT 00/09 A3012 RMK A01 T00-00-94  RH  049%=      5-min Rain = 0
KEA1 130648Z 21010KT M00/M10 A3012 RMK A01 T10011096  RH  049%=      5-min Rain = 0
KEA1 130649Z 21009KT M00/M09 A3012 RMK A01 T10011093  RH  050%=      5-min Rain = 0
KEA1 130650Z 21010KT M00/M09 A3012 RMK A01 T10011093  RH  050%=      5-min Rain = 0
KEA1 130651Z 22009KT M00/M09 A3012 RMK A01 T10011092  RH  050%=      5-min Rain = 0
KEA1 130652Z 21010KT M00/M09 A3012 RMK A01 T10011088  RH  052%=      5-min Rain = 0
KEA1 130653Z 22010KT M00/M09 A3012 RMK A01 T10011086  RH  053%=      5-min Rain = 0
KEA1 130654Z 22011KT M00/M09 A3012 RMK A01 T10011086  RH  053%=      5-min Rain = 0
KEA1 130655Z 22009KT M00/M09 A3012 RMK A01 T10011087  RH  052%=      5-min Rain = 0
KEA1 130656Z 22009KT M00/M09 A3012 RMK A01 T10011085  RH  053%=      5-min Rain = 0
KEA1 130657Z 21009KT M00/M08 A3012 RMK A01 T10011084  RH  053%=      5-min Rain = 0
KEA1 130658Z 23009G14KT M00/M09 A3012 RMK A01 T10011085  RH  053%=      5-min Rain = 0
KEA1 130659Z 22010KT M00/M09 A3012 RMK A01 T10021085  RH  054%=      5-min Rain = 0
KEA1 130700Z 22011KT M00/M09 A3012 RMK A01 T10011085  RH  053%=      5-min Rain = 0
KEA1 130701Z 22010KT M00/M09 A3012 RMK A01 T10011086  RH  053%=      5-min Rain = 0
KEA1 130702Z 22010KT M00/M09 A3012 RMK A01 T10011085  RH  053%=      5-min Rain = 0
KEA1 130703Z 23011KT M00/M09 A3012 RMK A01 T10011085  RH  053%=      5-min Rain = 0
KEA1 130704Z 22010KT M00/M09 A3012 RMK A01 T10011085  RH  053%=      5-min Rain = 0
KEA1 130705Z 21012KT M00/M08 A3012 RMK A01 T10011083  RH  054%=      5-min Rain = 0
KEA1 130706Z 23012KT 00/08 A3012 RMK A01 T00-00-83  RH  054%=      5-min Rain = 0
KEA1 130707Z 23013KT 00/09 A3012 RMK A01 T00-00-86  RH  053%=      5-min Rain = 0
KEA1 130708Z 23010G15KT 00/09 A3011 RMK A01 T00-00-87  RH  052%=      5-min Rain = 0
KEA1 130709Z 22012KT 00/09 A3011 RMK A01 T00-00-87  RH  052%=      5-min Rain = 0
KEA1 130710Z 23009KT M00/M09 A3012 RMK A01 T10011088  RH  052%=      5-min Rain = 0
KEA1 130711Z 23014KT M00/M09 A3011 RMK A01 T10021089  RH  052%=      5-min Rain = 0
KEA1 130712Z 23011KT M00/M09 A3011 RMK A01 T10011088  RH  052%=      5-min Rain = 0
KEA1 130713Z 23013KT M00/M09 A3011 RMK A01 T10011088  RH  052%=      5-min Rain = 0
KEA1 130714Z 23011KT M00/M09 A3011 RMK A01 T10011087  RH  053%=      5-min Rain = 0
KEA1 130715Z 23012KT M00/M09 A3011 RMK A01 T10021086  RH  053%=      5-min Rain = 0
KEA1 130716Z 23011KT M00/M09 A3011 RMK A01 T10011087  RH  052%=      5-min Rain = 0
KEA1 130717Z 23010KT M00/M09 A3011 RMK A01 T10021087  RH  052%=      5-min Rain = 0
KEA1 130718Z 23012G17KT M00/M09 A3011 RMK A01 T10021087  RH  053%=      5-min Rain = 0
KEA1 130719Z 23012G17KT M00/M09 A3011 RMK A01 T10021087  RH  053%=      5-min Rain = 0
KEA1 130720Z 22011KT M00/M09 A3011 RMK A01 T10021086  RH  053%=      5-min Rain = 0
KEA1 130721Z 23011KT M00/M08 A3011 RMK A01 T10011083  RH  054%=      5-min Rain = 0
KEA1 130722Z 22011KT M00/M08 A3011 RMK A01 T10011084  RH  054%=      5-min Rain = 0
KEA1 130723Z 22012KT M00/M09 A3011 RMK A01 T10021086  RH  053%=      5-min Rain = 0
KEA1 130724Z 21013KT M00/M08 A3011 RMK A01 T10011084  RH  053%=      5-min Rain = 0
KEA1 130725Z 22012KT 00/M08 A3011 RMK A01 T00011084  RH  053%=      5-min Rain = 0
KEA1 130726Z 22011KT 00/09 A3011 RMK A01 T00000-86  RH  052%=      5-min Rain = 0
KEA1 130727Z 22009KT 00/09 A3011 RMK A01 T00000-85  RH  053%=      5-min Rain = 0
KEA1 130728Z 21011KT 00/09 A3011 RMK A01 T00-00-85  RH  053%=      5-min Rain = 0
KEA1 130729Z 22012KT 00/08 A3011 RMK A01 T00-00-84  RH  053%=      5-min Rain = 0
KEA1 130730Z 22011KT 00/08 A3011 RMK A01 T00-00-82  RH  054%=      5-min Rain = 0
KEA1 130731Z 22010KT 00/08 A301 RMK A01 T00-00-82  RH  054%=      5-min Rain = 0
KEA1 130732Z 21013KT 00/09 A301 RMK A01 T00-00-85  RH  053%=      5-min Rain = 0
KEA1 130733Z 21010KT 00/08 A301 RMK A01 T00-00-84  RH  053%=      5-min Rain = 0
KEA1 130734Z 21011KT M00/M09 A301 RMK A01 T10011089  RH  051%=      5-min Rain = 0
KEA1 130735Z 21012KT M00/M09 A301 RMK A01 T10021093  RH  050%=      5-min Rain = 0
KEA1 130736Z 21010KT M00/M10 A301 RMK A01 T10031095  RH  050%=      5-min Rain = 0
KEA1 130737Z 20011G16KT M00/M10 A301 RMK A01 T10041096  RH  050%=      5-min Rain = 0
KEA1 130738Z 21012KT M01/M10 A3011 RMK A01 T10051098  RH  049%=      5-min Rain = 0
KEA1 130739Z 20011KT M01/M10 A3011 RMK A01 T10051097  RH  050%=      5-min Rain = 0
KEA1 130740Z 20012KT M01/M10 A301 RMK A01 T10051097  RH  050%=      5-min Rain = 0
KEA1 130741Z 20012KT M01/M10 A301 RMK A01 T10051098  RH  049%=      5-min Rain = 0
KEA1 130742Z 20013KT M01/M10 A301 RMK A01 T10061098  RH  050%=      5-min Rain = 0
KEA1 130743Z 20011KT M01/M10 A301 RMK A01 T10051099  RH  049%=      5-min Rain = 0
KEA1 130744Z 20010KT M01/M10 A301 RMK A01 T10061100  RH  049%=      5-min Rain = 0
KEA1 130745Z 20011KT M01/M10 A301 RMK A01 T10071101  RH  049%=      5-min Rain = 0
KEA1 130746Z 21012KT M01/M10 A301 RMK A01 T10081100  RH  050%=      5-min Rain = 0
KEA1 130747Z 20012KT M01/M10 A301 RMK A01 T10071099  RH  050%=      5-min Rain = 0
KEA1 130748Z 21012KT M01/M10 A301 RMK A01 T10071099  RH  050%=      5-min Rain = 0
KEA1 130749Z 21011KT M01/M10 A301 RMK A01 T10071099  RH  050%=      5-min Rain = 0
KEA1 130750Z 20010KT M01/M10 A301 RMK A01 T10071099  RH  050%=      5-min Rain = 0
KEA1 130751Z 20012KT M01/M10 A301 RMK A01 T10071099  RH  050%=      5-min Rain = 0
KEA1 130752Z 20013KT M01/M10 A301 RMK A01 T10071100  RH  050%=      5-min Rain = 0
KEA1 130753Z 20013KT M01/M10 A301 RMK A01 T10071099  RH  050%=      5-min Rain = 0
KEA1 130754Z 21014KT M01/M10 A3009 RMK A01 T10071099  RH  050%=      5-min Rain = 0
KEA1 130755Z 21014KT M01/M10 A3009 RMK A01 T10071099  RH  050%=      5-min Rain = 0
KEA1 130756Z 21011KT M01/M10 A3009 RMK A01 T10071099  RH  049%=      5-min Rain = 0
KEA1 130757Z 21013G18KT M01/M10 A3009 RMK A01 T10061099  RH  050%=      5-min Rain = 0
KEA1 130758Z 20014KT M01/M10 A3009 RMK A01 T10061098  RH  050%=      5-min Rain = 0
KEA1 130759Z 20014KT M01/M10 A3009 RMK A01 T10061098  RH  050%=      5-min Rain = 0
KEA1 130800Z 20015KT M01/M10 A3009 RMK A01 T10051097  RH  050%=      5-min Rain = 0
KEA1 130801Z 20014KT M01/M10 A3009 RMK A01 T10051098  RH  049%=      5-min Rain = 0
KEA1 130802Z 20015KT M01/M10 A3009 RMK A01 T10061099  RH  049%=      5-min Rain = 0
KEA1 130803Z 20014KT M01/M10 A3009 RMK A01 T10071100  RH  049%=      5-min Rain = 0
KEA1 130804Z 20014KT M01/M10 A3009 RMK A01 T10071100  RH  050%=      5-min Rain = 0
KEA1 130805Z 20016KT M01/M10 A3009 RMK A01 T10071099  RH  050%=      5-min Rain = 0
KEA1 130806Z 20015KT M01/M10 A3009 RMK A01 T10071099  RH  050%=      5-min Rain = 0
KEA1 130807Z 20015KT M01/M10 A3008 RMK A01 T10061100  RH  049%=      5-min Rain = 0
KEA1 130808Z 20013KT M01/M10 A3008 RMK A01 T10061100  RH  049%=      5-min Rain = 0
KEA1 130809Z 20014KT M01/M10 A3008 RMK A01 T10071100  RH  049%=      5-min Rain = 0
KEA1 130810Z 20014KT M01/M10 A3008 RMK A01 T10071100  RH  050%=      5-min Rain = 0
KEA1 130811Z 20013KT M01/M10 A3008 RMK A01 T10081099  RH  050%=      5-min Rain = 0
KEA1 130812Z 20014KT M01/M10 A3008 RMK A01 T10081099  RH  050%=      5-min Rain = 0
KEA1 130813Z 20012KT M01/M10 A3008 RMK A01 T10081099  RH  050%=      5-min Rain = 0
KEA1 130814Z 21012KT M01/M10 A3008 RMK A01 T10081100  RH  050%=      5-min Rain = 0
KEA1 130815Z 20013KT M01/M10 A3008 RMK A01 T10081100  RH  050%=      5-min Rain = 0
KEA1 130816Z 20013KT M01/M10 A3008 RMK A01 T10081099  RH  050%=      5-min Rain = 0
KEA1 130817Z 21013KT M01/M10 A3008 RMK A01 T10081099  RH  050%=      5-min Rain = 0
KEA1 130818Z 21014G19KT M01/M10 A3008 RMK A01 T10081099  RH  050%=      5-min Rain = 0
KEA1 130819Z 21014KT M01/M10 A3008 RMK A01 T10071098  RH  050%=      5-min Rain = 0
KEA1 130820Z 21016KT M01/M10 A3008 RMK A01 T10061097  RH  050%=      5-min Rain = 0
KEA1 130821Z 21015KT M00/M09 A3008 RMK A01 T10041094  RH  051%=      5-min Rain = 0
KEA1 130822Z 21015KT M00/M10 A3008 RMK A01 T10031095  RH  050%=      5-min Rain = 0
KEA1 130823Z 21015KT M00/M10 A3008 RMK A01 T10031095  RH  050%=      5-min Rain = 0
KEA1 130824Z 21014KT M00/M10 A3008 RMK A01 T10031096  RH  050%=      5-min Rain = 0
KEA1 130825Z 21011KT M00/M10 A3008 RMK A01 T10041097  RH  050%=      5-min Rain = 0
KEA1 130826Z 20012KT M01/M10 A3008 RMK A01 T10061097  RH  050%=      5-min Rain = 0
KEA1 130827Z 20014KT M01/M10 A3007 RMK A01 T10061098  RH  050%=      5-min Rain = 0
KEA1 130828Z 20011KT M01/M10 A3007 RMK A01 T10061098  RH  050%=      5-min Rain = 0
KEA1 130829Z 21011KT M01/M10 A3007 RMK A01 T10071098  RH  050%=      5-min Rain = 0
KEA1 130830Z 21012KT M01/M10 A3007 RMK A01 T10071097  RH  050%=      5-min Rain = 0
KEA1 130831Z 21013KT M01/M10 A3007 RMK A01 T10071096  RH  051%=      5-min Rain = 0
KEA1 130832Z 21013KT M01/M09 A3007 RMK A01 T10051094  RH  051%=      5-min Rain = 0
KEA1 130833Z 21013KT M00/M09 A3007 RMK A01 T10041094  RH  051%=      5-min Rain = 0
KEA1 130834Z 21012KT M00/M09 A3007 RMK A01 T10041094  RH  051%=      5-min Rain = 0
KEA1 130835Z 20015KT M00/M09 A3007 RMK A01 T10041094  RH  051%=      5-min Rain = 0
KEA1 130836Z 21014KT M00/M09 A3007 RMK A01 T10031093  RH  051%=      5-min Rain = 0
KEA1 130837Z 21013KT M00/M09 A3007 RMK A01 T10021093  RH  051%=      5-min Rain = 0
KEA1 130838Z 21014KT M00/M09 A3007 RMK A01 T10021091  RH  051%=      5-min Rain = 0
KEA1 130839Z 21014KT M00/M09 A3007 RMK A01 T10011088  RH  052%=      5-min Rain = 0
KEA1 130840Z 21015KT 00/M09 A3007 RMK A01 T00021085  RH  052%=      5-min Rain = 0
KEA1 130841Z 21016KT 00/M09 A3007 RMK A01 T00011088  RH  051%=      5-min Rain = 0
KEA1 130842Z 21014KT 00/M09 A3007 RMK A01 T00011088  RH  051%=      5-min Rain = 0
KEA1 130843Z 22014KT 00/M09 A3007 RMK A01 T00021091  RH  050%=      5-min Rain = 0
KEA1 130844Z 21013KT 00/09 A3007 RMK A01 T00000-91  RH  050%=      5-min Rain = 0
KEA1 130845Z 21013KT 00/09 A3007 RMK A01 T00000-88  RH  051%=      5-min Rain = 0
KEA1 130846Z 21013KT 00/M09 A3006 RMK A01 T00011087  RH  052%=      5-min Rain = 0
KEA1 130847Z 22012KT 00/M08 A3006 RMK A01 T00011083  RH  053%=      5-min Rain = 0
KEA1 130848Z 21014KT 00/M08 A3006 RMK A01 T00031082  RH  053%=      5-min Rain = 0
KEA1 130849Z 21015KT 00/M08 A3006 RMK A01 T00031084  RH  052%=      5-min Rain = 0
KEA1 130850Z 21015KT 00/M09 A3006 RMK A01 T00041085  RH  052%=      5-min Rain = 0
KEA1 130851Z 21017KT 00/M09 A3006 RMK A01 T00031087  RH  051%=      5-min Rain = 0
KEA1 130852Z 20018KT 00/M09 A3006 RMK A01 T00041087  RH  051%=      5-min Rain = 0
KEA1 130853Z 20014G19KT 00/M09 A3006 RMK A01 T00041088  RH  050%=      5-min Rain = 0
KEA1 130854Z 21014KT 00/M09 A3006 RMK A01 T00021090  RH  050%=      5-min Rain = 0
KEA1 130855Z 20014KT 00/M09 A3006 RMK A01 T00011090  RH  051%=      5-min Rain = 0
KEA1 130856Z 21016KT 00/09 A3006 RMK A01 T00-00-92  RH  050%=      5-min Rain = 0
KEA1 130857Z 21015KT 00/09 A3006 RMK A01 T00-00-91  RH  050%=      5-min Rain = 0
KEA1 130858Z 21015G21KT 00/09 A3006 RMK A01 T00-00-91  RH  050%=      5-min Rain = 0
KEA1 130859Z 21014G19KT M00/M09 A3006 RMK A01 T10011092  RH  050%=      5-min Rain = 0
KEA1 130900Z 21014KT M00/M09 A3006 RMK A01 T10011091  RH  051%=      5-min Rain = 0
KEA1 130901Z 21013KT 00/09 A3006 RMK A01 T00-00-89  RH  051%=      5-min Rain = 0
KEA1 130902Z 21015KT M00/M09 A3006 RMK A01 T10011089  RH  051%=      5-min Rain = 0
KEA1 130903Z 20012KT 00/M09 A3007 RMK A01 T00011087  RH  052%=      5-min Rain = 0
KEA1 130904Z 21013KT 00/09 A3007 RMK A01 T00000-89  RH  051%=      5-min Rain = 0
KEA1 130905Z 21013KT M00/M09 A3007 RMK A01 T10011089  RH  051%=      5-min Rain = 0
KEA1 130906Z 21015KT M00/M09 A3006 RMK A01 T10011090  RH  051%=      5-min Rain = 0
KEA1 130907Z 21014KT M00/M09 A3006 RMK A01 T10021089  RH  052%=      5-min Rain = 0
KEA1 130908Z 21014KT M00/M09 A3006 RMK A01 T10021088  RH  052%=      5-min Rain = 0
KEA1 130909Z 20014KT M00/M09 A3006 RMK A01 T10011087  RH  052%=      5-min Rain = 0
KEA1 130910Z 21013G18KT M00/M09 A3006 RMK A01 T10011086  RH  053%=      5-min Rain = 0
KEA1 130911Z 20015KT M00/M09 A3006 RMK A01 T10011085  RH  053%=      5-min Rain = 0
KEA1 130912Z 20014KT M00/M09 A3006 RMK A01 T10011086  RH  053%=      5-min Rain = 0
KEA1 130913Z 21016G21KT M00/M09 A3006 RMK A01 T10011086  RH  053%=      5-min Rain = 0
KEA1 130914Z 21014KT M00/M09 A3006 RMK A01 T10011085  RH  053%=      5-min Rain = 0
KEA1 130915Z 21014KT M00/M09 A3006 RMK A01 T10021087  RH  053%=      5-min Rain = 0
KEA1 130916Z 21014G20KT M00/M09 A3006 RMK A01 T10021088  RH  052%=      5-min Rain = 0
KEA1 130917Z 20015KT M00/M09 A3006 RMK A01 T10031088  RH  053%=      5-min Rain = 0
KEA1 130918Z 21017KT M00/M09 A3005 RMK A01 T10031087  RH  053%=      5-min Rain = 0
KEA1 130919Z 21016KT M00/M08 A3005 RMK A01 T10021083  RH  054%=      5-min Rain = 0
KEA1 130920Z 21015KT M00/M09 A3005 RMK A01 T10021085  RH  054%=      5-min Rain = 0
KEA1 130921Z 21012KT M00/M09 A3005 RMK A01 T10031087  RH  053%=      5-min Rain = 0
KEA1 130922Z 21013KT M00/M09 A3005 RMK A01 T10041087  RH  053%=      5-min Rain = 0
KEA1 130923Z 21013G18KT M00/M09 A3005 RMK A01 T10041087  RH  053%=      5-min Rain = 0
KEA1 130924Z 20015KT M01/M09 A3005 RMK A01 T10061089  RH  053%=      5-min Rain = 0
KEA1 130925Z 21016KT M01/M09 A3005 RMK A01 T10051088  RH  054%=      5-min Rain = 0
KEA1 130926Z 21016KT M01/M09 A3005 RMK A01 T10051087  RH  054%=      5-min Rain = 0
KEA1 130927Z 21015KT M00/M09 A3005 RMK A01 T10041086  RH  054%=      5-min Rain = 0
KEA1 130928Z 20015KT M00/M08 A3004 RMK A01 T10031084  RH  054%=      5-min Rain = 0
KEA1 130929Z 20014G20KT M00/M09 A3005 RMK A01 T10031085  RH  054%=      5-min Rain = 0
KEA1 130930Z 21015KT M00/M09 A3004 RMK A01 T10041088  RH  053%=      5-min Rain = 0
KEA1 130931Z 21016G21KT M00/M09 A3004 RMK A01 T10041088  RH  053%=      5-min Rain = 0
KEA1 130932Z 20016KT M00/M09 A3004 RMK A01 T10041089  RH  053%=      5-min Rain = 0
KEA1 130933Z 21015G20KT M00/M09 A3004 RMK A01 T10041089  RH  053%=      5-min Rain = 0
KEA1 130934Z 20014KT M01/M09 A3004 RMK A01 T10051089  RH  053%=      5-min Rain = 0
KEA1 130935Z 21015G21KT M01/M09 A3004 RMK A01 T10061089  RH  053%=      5-min Rain = 0
KEA1 130936Z 21017KT M01/M09 A3004 RMK A01 T10061089  RH  053%=      5-min Rain = 0
KEA1 130937Z 21014KT M01/M09 A3004 RMK A01 T10051088  RH  053%=      5-min Rain = 0
KEA1 130938Z 20018KT M01/M09 A3004 RMK A01 T10051089  RH  053%=      5-min Rain = 0
KEA1 130939Z 21015KT M00/M09 A3004 RMK A01 T10041088  RH  053%=      5-min Rain = 0
KEA1 130940Z 20017KT M00/M09 A3004 RMK A01 T10041088  RH  053%=      5-min Rain = 0
KEA1 130941Z 20019KT M00/M09 A3003 RMK A01 T10041088  RH  053%=      5-min Rain = 0
KEA1 130942Z 20018KT M00/M09 A3003 RMK A01 T10031088  RH  053%=      5-min Rain = 0
KEA1 130943Z 20017KT M00/M09 A3003 RMK A01 T10031088  RH  053%=      5-min Rain = 0
KEA1 130944Z 20017G22KT M00/M09 A3003 RMK A01 T10031088  RH  053%=      5-min Rain = 0
KEA1 130945Z 20017G24KT M00/M09 A3003 RMK A01 T10031088  RH  053%=      5-min Rain = 0
KEA1 130946Z 20019KT M00/M09 A3003 RMK A01 T10031088  RH  053%=      5-min Rain = 0
KEA1 130947Z 20018KT M00/M09 A3003 RMK A01 T10031088  RH  053%=      5-min Rain = 0
KEA1 130948Z 20018KT M00/M09 A3003 RMK A01 T10031088  RH  053%=      5-min Rain = 0
KEA1 130949Z 20019KT M00/M09 A3003 RMK A01 T10031088  RH  053%=      5-min Rain = 0
KEA1 130950Z 20019KT M00/M09 A3003 RMK A01 T10031088  RH  053%=      5-min Rain = 0
KEA1 130951Z 20020KT M00/M09 A3002 RMK A01 T10031088  RH  053%=      5-min Rain = 0
KEA1 130952Z 20019G24KT M00/M09 A3002 RMK A01 T10031088  RH  053%=      5-min Rain = 0
KEA1 130953Z 21020KT M00/M09 A3002 RMK A01 T10021088  RH  053%=      5-min Rain = 0
KEA1 130954Z 20019KT M00/M09 A3002 RMK A01 T10021088  RH  052%=      5-min Rain = 0
KEA1 130955Z 20019G24KT M00/M09 A3002 RMK A01 T10021088  RH  052%=      5-min Rain = 0
KEA1 130956Z 20018G23KT M00/M09 A3002 RMK A01 T10021088  RH  052%=      5-min Rain = 0
KEA1 130957Z 20019G24KT M00/M09 A3002 RMK A01 T10021088  RH  053%=      5-min Rain = 0
KEA1 130958Z 20019KT M00/M09 A3002 RMK A01 T10021088  RH  053%=      5-min Rain = 0
KEA1 130959Z 20020KT M00/M09 A3002 RMK A01 T10021087  RH  053%=      5-min Rain = 0
KEA1 131000Z 20020KT M00/M09 A3001 RMK A01 T10021087  RH  053%=      5-min Rain = 0
KEA1 131001Z 20020KT M00/M09 A3001 RMK A01 T10031087  RH  053%=      5-min Rain = 0
KEA1 131002Z 20017G22KT M00/M09 A3002 RMK A01 T10031087  RH  053%=      5-min Rain = 0
KEA1 131003Z 20018KT M00/M09 A3002 RMK A01 T10031087  RH  053%=      5-min Rain = 0
KEA1 131004Z 20018KT M00/M09 A3002 RMK A01 T10041087  RH  053%=      5-min Rain = 0
KEA1 131005Z 21019KT M00/M09 A3001 RMK A01 T10041087  RH  054%=      5-min Rain = 0
KEA1 131006Z 20020KT M00/M09 A3001 RMK A01 T10031087  RH  053%=      5-min Rain = 0
KEA1 131007Z 21015KT M00/M09 A3001 RMK A01 T10021086  RH  053%=      5-min Rain = 0
KEA1 131008Z 21017G22KT M00/M09 A3001 RMK A01 T10031086  RH  053%=      5-min Rain = 0
KEA1 131009Z 21018KT M00/M09 A3001 RMK A01 T10031085  RH  054%=      5-min Rain = 0
KEA1 131010Z 21016KT M00/M09 A3001 RMK A01 T10021086  RH  053%=      5-min Rain = 0
KEA1 131011Z 21020KT M00/M09 A3001 RMK A01 T10021085  RH  054%=      5-min Rain = 0
KEA1 131012Z 21017KT 00/M08 A3001 RMK A01 T00011082  RH  054%=      5-min Rain = 0
KEA1 131013Z 20018KT 00/M08 A3001 RMK A01 T00011084  RH  053%=      5-min Rain = 0
KEA1 131014Z 21018KT 00/09 A30 RMK A01 T00000-85  RH  053%=      5-min Rain = 0
KEA1 131015Z 21018G23KT 00/M08 A30 RMK A01 T00011083  RH  053%=      5-min Rain = 0
KEA1 131016Z 21017KT 00/M08 A30 RMK A01 T00031081  RH  054%=      5-min Rain = 0
KEA1 131017Z 21022KT 00/M08 A30 RMK A01 T00031081  RH  053%=      5-min Rain = 0
KEA1 131018Z 21022KT 01/M08 A30 RMK A01 T00061079  RH  053%=      5-min Rain = 0
KEA1 131019Z 21018G23KT 01/M08 A30 RMK A01 T00071079  RH  053%=      5-min Rain = 0
KEA1 131020Z 21018G23KT 01/M08 A30 RMK A01 T00091077  RH  053%=      5-min Rain = 0
KEA1 131021Z 22019KT 01/M08 A30 RMK A01 T00111075  RH  053%=      5-min Rain = 0
KEA1 131022Z 22015KT 01/M07 A30 RMK A01 T00121073  RH  053%=      5-min Rain = 0
KEA1 131023Z 23016KT 01/M07 A30 RMK A01 T00141069  RH  054%=      5-min Rain = 0
KEA1 131024Z 23016KT 01/M07 A30 RMK A01 T00141068  RH  055%=      5-min Rain = 0
KEA1 131025Z 23020KT 01/M07 A30 RMK A01 T00121069  RH  055%=      5-min Rain = 0
KEA1 131026Z 23018G23KT 01/M07 A30 RMK A01 T00111070  RH  055%=      5-min Rain = 0
KEA1 131027Z 23016KT 01/M07 A30 RMK A01 T00111069  RH  055%=      5-min Rain = 0
KEA1 131028Z 23015KT 01/M07 A3001 RMK A01 T00101067  RH  056%=      5-min Rain = 0
KEA1 131029Z 23015G20KT 01/M07 A3001 RMK A01 T00101067  RH  057%=      5-min Rain = 0
KEA1 131030Z 22016KT 01/M07 A30 RMK A01 T00091068  RH  056%=      5-min Rain = 0
KEA1 131031Z 22015KT 01/M07 A3001 RMK A01 T00111067  RH  056%=      5-min Rain = 0
KEA1 131032Z 23014KT 01/M07 A3001 RMK A01 T00111067  RH  056%=      5-min Rain = 0
KEA1 131033Z 22015KT 01/M07 A3001 RMK A01 T00111067  RH  056%=      5-min Rain = 0
KEA1 131034Z 22015KT 01/M07 A3001 RMK A01 T00101068  RH  056%=      5-min Rain = 0
KEA1 131035Z 23012KT 01/M07 A3001 RMK A01 T00101067  RH  056%=      5-min Rain = 0
KEA1 131036Z 22014G19KT 01/M07 A3001 RMK A01 T00101066  RH  057%=      5-min Rain = 0
KEA1 131037Z 23014KT 01/M07 A3001 RMK A01 T00101066  RH  057%=      5-min Rain = 0
KEA1 131038Z 24013KT 01/M07 A3001 RMK A01 T00101067  RH  056%=      5-min Rain = 0
KEA1 131039Z 24014KT 01/M07 A3002 RMK A01 T00081068  RH  057%=      5-min Rain = 0
KEA1 131040Z 24011KT 01/M07 A3002 RMK A01 T00061070  RH  056%=      5-min Rain = 0
KEA1 131041Z 23011KT 00/M07 A3001 RMK A01 T00041074  RH  056%=      5-min Rain = 0
KEA1 131042Z 23011KT 00/M07 A3001 RMK A01 T00021071  RH  058%=      5-min Rain = 0
KEA1 131043Z 23012KT 00/M07 A3001 RMK A01 T00021071  RH  058%=      5-min Rain = 0
KEA1 131044Z 25009KT 00/M07 A3001 RMK A01 T00031070  RH  058%=      5-min Rain = 0
KEA1 131045Z 24012G18KT 00/M07 A3001 RMK A01 T00021073  RH  057%=      5-min Rain = 0
KEA1 131046Z 24009KT 00/M07 A3001 RMK A01 T00021072  RH  058%=      5-min Rain = 0
KEA1 131047Z 24011KT 00/M07 A3001 RMK A01 T00011074  RH  057%=      5-min Rain = 0
KEA1 131048Z 23011G16KT 00/M07 A3001 RMK A01 T00011071  RH  058%=      5-min Rain = 0
KEA1 131049Z 23008KT 00/M07 A3001 RMK A01 T00021071  RH  058%=      5-min Rain = 0
KEA1 131050Z 23010KT 00/M07 A3001 RMK A01 T00021070  RH  058%=      5-min Rain = 0
KEA1 131051Z 22009KT 00/M07 A3001 RMK A01 T00011067  RH  060%=      5-min Rain = 0
KEA1 131052Z 21008KT 00/M07 A3001 RMK A01 T00011065  RH  061%=      5-min Rain = 0
KEA1 131053Z 21011KT 00/M07 A3001 RMK A01 T00021066  RH  060%=      5-min Rain = 0
KEA1 131054Z 22011KT 00/M07 A3001 RMK A01 T00031065  RH  060%=      5-min Rain = 0
KEA1 131055Z 21012KT 01/M07 A3001 RMK A01 T00051065  RH  059%=      5-min Rain = 0
KEA1 131056Z 22010KT 01/M07 A3001 RMK A01 T00051066  RH  059%=      5-min Rain = 0
KEA1 131057Z 22011G18KT 00/M06 A3001 RMK A01 T00041064  RH  060%=      5-min Rain = 0
KEA1 131058Z 22011KT 01/M06 A30 RMK A01 T00051063  RH  060%=      5-min Rain = 0
KEA1 131059Z 22010KT 01/M06 A3001 RMK A01 T00051063  RH  060%=      5-min Rain = 0
KEA1 131100Z 23012KT 01/M06 A3001 RMK A01 T00051061  RH  061%=      5-min Rain = 0
KEA1 131101Z 23014KT 01/M06 A3001 RMK A01 T00051062  RH  061%=      5-min Rain = 0
KEA1 131102Z 23010KT 01/M06 A30 RMK A01 T00051062  RH  061%=      5-min Rain = 0
KEA1 131103Z 23009KT 01/M06 A3001 RMK A01 T00051063  RH  061%=      5-min Rain = 0
KEA1 131104Z 23008KT 00/M07 A3001 RMK A01 T00031066  RH  060%=      5-min Rain = 0
KEA1 131105Z 24010KT 00/M07 A3001 RMK A01 T00021065  RH  061%=      5-min Rain = 0
KEA1 131106Z 24009KT 00/M07 A3001 RMK A01 T00011067  RH  060%=      5-min Rain = 0
KEA1 131107Z 24009KT 00/M07 A3001 RMK A01 T00011069  RH  059%=      5-min Rain = 0
KEA1 131108Z 25009KT 00/07 A3001 RMK A01 T00-00-71  RH  059%=      5-min Rain = 0
KEA1 131109Z 25011KT M00/M08 A3001 RMK A01 T10021075  RH  058%=      5-min Rain = 0
KEA1 131110Z 24009KT M00/M08 A3001 RMK A01 T10041076  RH  058%=      5-min Rain = 0
KEA1 131111Z 24010KT M00/M08 A3001 RMK A01 T10041076  RH  058%=      5-min Rain = 0
KEA1 131112Z 24011KT M01/M08 A3001 RMK A01 T10051075  RH  059%=      5-min Rain = 0
KEA1 131113Z 24009KT M00/M07 A3001 RMK A01 T10041074  RH  059%=      5-min Rain = 0
KEA1 131114Z 24010KT M00/M08 A3001 RMK A01 T10031075  RH  059%=      5-min Rain = 0
KEA1 131115Z 23012KT M00/M08 A3001 RMK A01 T10031075  RH  058%=      5-min Rain = 0
KEA1 131116Z 23010KT M00/M08 A30 RMK A01 T10021075  RH  058%=      5-min Rain = 0
KEA1 131117Z 22012KT M00/M08 A30 RMK A01 T10021075  RH  058%=      5-min Rain = 0
KEA1 131118Z 22013KT M00/M07 A30 RMK A01 T10021074  RH  058%=      5-min Rain = 0
KEA1 131119Z 22013KT M00/M07 A30 RMK A01 T10011070  RH  060%=      5-min Rain = 0
KEA1 131120Z 21011KT 00/M07 A3001 RMK A01 T00011065  RH  061%=      5-min Rain = 0
KEA1 131121Z 21010KT 00/M06 A3001 RMK A01 T00031059  RH  063%=      5-min Rain = 0
KEA1 131122Z 22013KT 00/M06 A3001 RMK A01 T00031060  RH  062%=      5-min Rain = 0
KEA1 131123Z 22014KT 01/M06 A3001 RMK A01 T00051062  RH  061%=      5-min Rain = 0
KEA1 131124Z 23010KT 01/M06 A3001 RMK A01 T00061061  RH  061%=      5-min Rain = 0
KEA1 131125Z 23009KT 01/M06 A3001 RMK A01 T00071062  RH  060%=      5-min Rain = 0
KEA1 131126Z 23010KT 01/M06 A3001 RMK A01 T00051063  RH  060%=      5-min Rain = 0
KEA1 131127Z 24011KT 00/M06 A3001 RMK A01 T00041063  RH  061%=      5-min Rain = 0
KEA1 131128Z 23010KT 00/M06 A3001 RMK A01 T00041063  RH  061%=      5-min Rain = 0
KEA1 131129Z 23010KT 00/M06 A3001 RMK A01 T00031063  RH  061%=      5-min Rain = 0
KEA1 131130Z 23011KT 00/M07 A3001 RMK A01 T00021065  RH  061%=      5-min Rain = 0
KEA1 131131Z 23012KT 00/M07 A3001 RMK A01 T00021065  RH  061%=      5-min Rain = 0
KEA1 131132Z 23012KT 00/M07 A30 RMK A01 T00011065  RH  061%=      5-min Rain = 0
KEA1 131133Z 23013KT 00/M06 A30 RMK A01 T00021064  RH  061%=      5-min Rain = 0
KEA1 131134Z 24011KT 00/M07 A30 RMK A01 T00021065  RH  061%=      5-min Rain = 0
KEA1 131135Z 23012KT 00/M07 A30 RMK A01 T00011065  RH  061%=      5-min Rain = 0
KEA1 131136Z 23012KT 00/07 A30 RMK A01 T00000-67  RH  061%=      5-min Rain = 0
KEA1 131137Z 23011KT M00/M07 A30 RMK A01 T10011068  RH  060%=      5-min Rain = 0
KEA1 131138Z 23011KT M00/M07 A30 RMK A01 T10011068  RH  061%=      5-min Rain = 0
KEA1 131139Z 23012KT M00/M07 A30 RMK A01 T10021068  RH  061%=      5-min Rain = 0
KEA1 131140Z 23014KT M00/M07 A30 RMK A01 T10021065  RH  062%=      5-min Rain = 0
KEA1 131141Z 23014KT M00/M06 A30 RMK A01 T10011062  RH  063%=      5-min Rain = 0
KEA1 131142Z 23013KT 00/M06 A30 RMK A01 T00011061  RH  063%=      5-min Rain = 0
KEA1 131143Z 24010KT 00/M06 A30 RMK A01 T00011062  RH  062%=      5-min Rain = 0
KEA1 131144Z 23011KT M00/M07 A30 RMK A01 T10011066  RH  062%=      5-min Rain = 0
KEA1 131145Z 23011KT M00/M07 A30 RMK A01 T10031070  RH  061%=      5-min Rain = 0
KEA1 131146Z 23012KT M00/M07 A30 RMK A01 T10041070  RH  061%=      5-min Rain = 0
KEA1 131147Z 22012KT M00/M07 A30 RMK A01 T10041066  RH  063%=      5-min Rain = 0
KEA1 131148Z 23013KT M00/M06 A30 RMK A01 T10021060  RH  065%=      5-min Rain = 0
KEA1 131149Z 22013G18KT M00/M06 A30 RMK A01 T10011061  RH  064%=      5-min Rain = 0
KEA1 131150Z 22012KT 00/M06 A30 RMK A01 T00011058  RH  064%=      5-min Rain = 0
KEA1 131151Z 23009KT 00/M06 A30 RMK A01 T00031057  RH  064%=      5-min Rain = 0
KEA1 131152Z 22010KT 00/M06 A30 RMK A01 T00011059  RH  064%=      5-min Rain = 0
KEA1 131153Z 22007KT 00/M06 A30 RMK A01 T00011058  RH  065%=      5-min Rain = 0
KEA1 131154Z 23007KT 00/M06 A30 RMK A01 T00011058  RH  065%=      5-min Rain = 0
KEA1 131155Z 22009KT 00/06 A30 RMK A01 T00-00-60  RH  064%=      5-min Rain = 0
KEA1 131156Z 22008KT M00/M06 A30 RMK A01 T10011062  RH  064%=      5-min Rain = 0
KEA1 131157Z 22007KT M00/M06 A30 RMK A01 T10011062  RH  064%=      5-min Rain = 0
KEA1 131158Z 22008KT M00/M06 A30 RMK A01 T10011061  RH  064%=      5-min Rain = 0
KEA1 131159Z 22006KT M00/M06 A30 RMK A01 T10021060  RH  065%=      5-min Rain = 0
KEA1 131200Z 21007KT M00/M06 A30 RMK A01 T10011059  RH  065%=      5-min Rain = 0
KEA1 131201Z 21009KT M00/M06 A30 RMK A01 T10011061  RH  064%=      5-min Rain = 0
KEA1 131202Z 21010KT M00/M07 A30 RMK A01 T10011065  RH  062%=      5-min Rain = 0
KEA1 131203Z 20010KT M00/M07 A30 RMK A01 T10021067  RH  061%=      5-min Rain = 0
KEA1 131204Z 20011KT M00/M07 A30 RMK A01 T10031069  RH  061%=      5-min Rain = 0
KEA1 131205Z 21011KT M00/M07 A30 RMK A01 T10041071  RH  060%=      5-min Rain = 0
KEA1 131206Z 20009KT M00/M07 A30 RMK A01 T10041067  RH  062%=      5-min Rain = 0
KEA1 131207Z 20010KT M01/M07 A30 RMK A01 T10051070  RH  061%=      5-min Rain = 0
KEA1 131208Z 21008KT M01/M07 A30 RMK A01 T10061072  RH  061%=      5-min Rain = 0
KEA1 131209Z 20009KT M01/M07 A30 RMK A01 T10061073  RH  061%=      5-min Rain = 0
KEA1 131210Z 21009G14KT M01/M07 A30 RMK A01 T10071071  RH  062%=      5-min Rain = 0
KEA1 131211Z 21010KT M01/M07 A30 RMK A01 T10071070  RH  062%=      5-min Rain = 0
KEA1 131212Z 21011KT M01/M07 A2999 RMK A01 T10071070  RH  062%=      5-min Rain = 0
KEA1 131213Z 21009KT M01/M07 A30 RMK A01 T10061070  RH  062%=      5-min Rain = 0
KEA1 131214Z 21008KT M01/M07 A30 RMK A01 T10061070  RH  062%=      5-min Rain = 0
KEA1 131215Z 20010KT M01/M07 A30 RMK A01 T10071070  RH  063%=      5-min Rain = 0
KEA1 131216Z 21011KT M01/M07 A30 RMK A01 T10081069  RH  063%=      5-min Rain = 0
KEA1 131217Z 21010KT M01/M07 A30 RMK A01 T10071069  RH  063%=      5-min Rain = 0
KEA1 131218Z 21009KT M01/M07 A30 RMK A01 T10061067  RH  063%=      5-min Rain = 0
KEA1 131219Z 20011KT M01/M07 A30 RMK A01 T10061068  RH  063%=      5-min Rain = 0
KEA1 131220Z 22013KT M01/M07 A30 RMK A01 T10071067  RH  063%=      5-min Rain = 0
KEA1 131221Z 21011KT M01/M07 A30 RMK A01 T10051066  RH  064%=      5-min Rain = 0
KEA1 131222Z 21009KT M01/M07 A30 RMK A01 T10051068  RH  062%=      5-min Rain = 0
KEA1 131223Z 20011KT M01/M07 A30 RMK A01 T10061069  RH  062%=      5-min Rain = 0
KEA1 131224Z 20010KT M01/M07 A30 RMK A01 T10071071  RH  062%=      5-min Rain = 0
KEA1 131225Z 21014KT M01/M07 A30 RMK A01 T10081069  RH  063%=      5-min Rain = 0
KEA1 131226Z 21011KT M01/M07 A30 RMK A01 T10061067  RH  063%=      5-min Rain = 0
KEA1 131227Z 20011KT M01/M07 A30 RMK A01 T10051068  RH  063%=      5-min Rain = 0
KEA1 131228Z 21009KT M01/M07 A30 RMK A01 T10071070  RH  062%=      5-min Rain = 0
KEA1 131229Z 21009KT M01/M07 A30 RMK A01 T10071068  RH  063%=      5-min Rain = 0
KEA1 131230Z 22010KT M01/M07 A30 RMK A01 T10071066  RH  065%=      5-min Rain = 0
KEA1 131231Z 21010KT M01/M06 A30 RMK A01 T10071063  RH  066%=      5-min Rain = 0
KEA1 131232Z 22009KT M01/M06 A30 RMK A01 T10061060  RH  067%=      5-min Rain = 0
KEA1 131233Z 22009KT M01/M06 A30 RMK A01 T10061060  RH  067%=      5-min Rain = 0
KEA1 131234Z 23009KT M01/M06 A30 RMK A01 T10061061  RH  066%=      5-min Rain = 0
KEA1 131235Z 22008KT M01/M06 A30 RMK A01 T10061060  RH  067%=      5-min Rain = 0
KEA1 131236Z 22009KT M01/M06 A30 RMK A01 T10071059  RH  067%=      5-min Rain = 0
KEA1 131237Z 22009KT M01/M06 A30 RMK A01 T10061059  RH  068%=      5-min Rain = 0
KEA1 131238Z 22008KT M01/M06 A30 RMK A01 T10061059  RH  067%=      5-min Rain = 0
KEA1 131239Z 21009KT M01/M06 A30 RMK A01 T10061060  RH  067%=      5-min Rain = 0
KEA1 131240Z 21011KT M01/M06 A2999 RMK A01 T10071062  RH  067%=      5-min Rain = 0
KEA1 131241Z 21009KT M01/M06 A30 RMK A01 T10071063  RH  066%=      5-min Rain = 0
KEA1 131242Z 21010KT M01/M07 A30 RMK A01 T10071065  RH  065%=      5-min Rain = 0
KEA1 131243Z 21010KT M01/M06 A2999 RMK A01 T10081064  RH  066%=      5-min Rain = 0
KEA1 131244Z 22009KT M01/M06 A30 RMK A01 T10081063  RH  066%=      5-min Rain = 0
KEA1 131245Z 23007KT M01/M06 A30 RMK A01 T10081061  RH  067%=      5-min Rain = 0
KEA1 131246Z 23011KT M01/M06 A2999 RMK A01 T10091060  RH  068%=      5-min Rain = 0
KEA1 131247Z 23009KT M01/M06 A2999 RMK A01 T10091061  RH  068%=      5-min Rain = 0
KEA1 131248Z 23010KT M01/M06 A2999 RMK A01 T10091062  RH  067%=      5-min Rain = 0
KEA1 131249Z 23013KT M01/M06 A2999 RMK A01 T10081062  RH  067%=      5-min Rain = 0
KEA1 131250Z 23013KT M01/M06 A2999 RMK A01 T10061060  RH  067%=      5-min Rain = 0
KEA1 131251Z 23011KT M01/M06 A2999 RMK A01 T10051059  RH  067%=      5-min Rain = 0
KEA1 131252Z 23009KT M01/M06 A2999 RMK A01 T10061058  RH  068%=      5-min Rain = 0
KEA1 131253Z 23011KT M01/M06 A2999 RMK A01 T10071058  RH  069%=      5-min Rain = 0
KEA1 131254Z 24012KT M01/M06 A2999 RMK A01 T10061058  RH  068%=      5-min Rain = 0
KEA1 131255Z 23010KT M01/M06 A2999 RMK A01 T10061057  RH  068%=      5-min Rain = 0
KEA1 131256Z 23011KT M01/M06 A2999 RMK A01 T10071060  RH  067%=      5-min Rain = 0
KEA1 131257Z 23012KT M01/M06 A2999 RMK A01 T10081062  RH  067%=      5-min Rain = 0
KEA1 131258Z 22011KT M01/M06 A2999 RMK A01 T10081062  RH  067%=      5-min Rain = 0
KEA1 131259Z 23011KT M01/M06 A2999 RMK A01 T10091062  RH  067%=      5-min Rain = 0
KEA1 131300Z 23012KT M01/M06 A2998 RMK A01 T10091061  RH  067%=      5-min Rain = 0
KEA1 131301Z 23012KT M01/M06 A2998 RMK A01 T10091061  RH  067%=      5-min Rain = 0
KEA1 131302Z 23013KT M01/M06 A2998 RMK A01 T10081059  RH  068%=      5-min Rain = 0
KEA1 131303Z 23014KT M01/M06 A2999 RMK A01 T10071059  RH  068%=      5-min Rain = 0
KEA1 131304Z 23009G14KT M01/M06 A2999 RMK A01 T10071060  RH  068%=      5-min Rain = 0
KEA1 131305Z 22011G16KT M01/M06 A2999 RMK A01 T10081060  RH  068%=      5-min Rain = 0
KEA1 131306Z 24010KT M01/M06 A2999 RMK A01 T10091061  RH  068%=      5-min Rain = 0
KEA1 131307Z 23009KT M01/M06 A2999 RMK A01 T10101061  RH  068%=      5-min Rain = 0
KEA1 131308Z 23010KT M01/M06 A2999 RMK A01 T10101060  RH  069%=      5-min Rain = 0
KEA1 131309Z 23010KT M01/M06 A2999 RMK A01 T10111062  RH  068%=      5-min Rain = 0
KEA1 131310Z 23012KT M01/M06 A2999 RMK A01 T10121062  RH  068%=      5-min Rain = 0
KEA1 131311Z 23011G16KT M01/M06 A2999 RMK A01 T10101059  RH  069%=      5-min Rain = 0
KEA1 131312Z 24010KT M01/M06 A2999 RMK A01 T10091059  RH  069%=      5-min Rain = 0
KEA1 131313Z 23010KT M01/M06 A2999 RMK A01 T10101063  RH  068%=      5-min Rain = 0
KEA1 131314Z 23010G15KT M01/M06 A2999 RMK A01 T10111063  RH  068%=      5-min Rain = 0
KEA1 131315Z 23010KT M01/M06 A2999 RMK A01 T10111060  RH  069%=      5-min Rain = 0
KEA1 131316Z 22012KT M01/M06 A2999 RMK A01 T10111058  RH  070%=      5-min Rain = 0
KEA1 131317Z 23014KT M01/M06 A2999 RMK A01 T10101057  RH  070%=      5-min Rain = 0
KEA1 131318Z 23016KT M01/M06 A2999 RMK A01 T10081058  RH  069%=      5-min Rain = 0
KEA1 131319Z 22016KT M01/M06 A2998 RMK A01 T10071058  RH  068%=      5-min Rain = 0
KEA1 131320Z 22014KT M01/M06 A2998 RMK A01 T10061059  RH  068%=      5-min Rain = 0
KEA1 131321Z 22011KT M01/M06 A2999 RMK A01 T10061058  RH  068%=      5-min Rain = 0
KEA1 131322Z 22012KT M01/M06 A2999 RMK A01 T10061058  RH  068%=      5-min Rain = 0
KEA1 131323Z 22012G17KT M01/M06 A2999 RMK A01 T10061055  RH  069%=      5-min Rain = 0
KEA1 131324Z 22012G17KT M01/M05 A2999 RMK A01 T10051054  RH  069%=      5-min Rain = 0
KEA1 131325Z 22012KT M01/M06 A2998 RMK A01 T10051056  RH  069%=      5-min Rain = 0
KEA1 131326Z 22012G17KT M01/M06 A2998 RMK A01 T10051056  RH  068%=      5-min Rain = 0
KEA1 131327Z 22012G17KT M00/M06 A2998 RMK A01 T10041056  RH  068%=      5-min Rain = 0
KEA1 131328Z 22012KT M00/M06 A2998 RMK A01 T10041057  RH  068%=      5-min Rain = 0
KEA1 131329Z 22013KT M01/M06 A2998 RMK A01 T10051056  RH  068%=      5-min Rain = 0
KEA1 131330Z 22012KT M00/M05 A2998 RMK A01 T10041054  RH  069%=      5-min Rain = 0
KEA1 131331Z 22012KT M00/M05 A2998 RMK A01 T10041054  RH  069%=      5-min Rain = 0
KEA1 131332Z 22013KT M00/M05 A2998 RMK A01 T10041054  RH  069%=      5-min Rain = 0
KEA1 131333Z 22012KT M00/M05 A2998 RMK A01 T10041054  RH  069%=      5-min Rain = 0
KEA1 131334Z 22012KT M00/M05 A2998 RMK A01 T10031053  RH  069%=      5-min Rain = 0
KEA1 131335Z 22013KT M00/M05 A2998 RMK A01 T10031054  RH  069%=      5-min Rain = 0
KEA1 131336Z 22011G18KT M00/M05 A2998 RMK A01 T10031053  RH  069%=      5-min Rain = 0
KEA1 131337Z 22014KT M00/M05 A2998 RMK A01 T10031053  RH  069%=      5-min Rain = 0
KEA1 131338Z 21014KT M00/M05 A2998 RMK A01 T10031054  RH  068%=      5-min Rain = 0
KEA1 131339Z 21012KT M00/M05 A2998 RMK A01 T10021054  RH  068%=      5-min Rain = 0
KEA1 131340Z 21013KT M00/M06 A2998 RMK A01 T10021058  RH  066%=      5-min Rain = 0
KEA1 131341Z 20013KT M00/M06 A2998 RMK A01 T10031060  RH  065%=      5-min Rain = 0
KEA1 131342Z 21015KT M00/M06 A2998 RMK A01 T10041062  RH  065%=      5-min Rain = 0
KEA1 131343Z 20012KT M00/M06 A2998 RMK A01 T10041061  RH  065%=      5-min Rain = 0
KEA1 131344Z 20013KT M01/M06 A2998 RMK A01 T10061063  RH  065%=      5-min Rain = 0
KEA1 131345Z 21011KT M01/M06 A2998 RMK A01 T10061064  RH  065%=      5-min Rain = 0
KEA1 131346Z 21014KT M01/M07 A2998 RMK A01 T10081065  RH  065%=      5-min Rain = 0
KEA1 131347Z 21013KT M01/M06 A2998 RMK A01 T10081064  RH  066%=      5-min Rain = 0
KEA1 131348Z 21012G17KT M01/M07 A2998 RMK A01 T10081065  RH  066%=      5-min Rain = 0
KEA1 131349Z 20015KT M01/M06 A2998 RMK A01 T10081064  RH  066%=      5-min Rain = 0
KEA1 131350Z 21011KT M01/M07 A2998 RMK A01 T10081065  RH  065%=      5-min Rain = 0
KEA1 131351Z 21013G19KT M01/M07 A2998 RMK A01 T10091066  RH  065%=      5-min Rain = 0
KEA1 131352Z 21016KT M01/M07 A2998 RMK A01 T10091065  RH  065%=      5-min Rain = 0
KEA1 131353Z 21014KT M01/M07 A2998 RMK A01 T10081065  RH  065%=      5-min Rain = 0
KEA1 131354Z 21012KT M01/M06 A2998 RMK A01 T10071062  RH  066%=      5-min Rain = 0
KEA1 131355Z 22010KT M01/M06 A2998 RMK A01 T10061063  RH  066%=      5-min Rain = 0
KEA1 131356Z 21014KT M01/M06 A2998 RMK A01 T10061061  RH  066%=      5-min Rain = 0
KEA1 131357Z 21013KT M01/M06 A2998 RMK A01 T10051059  RH  067%=      5-min Rain = 0
KEA1 131358Z 21012G17KT M01/M06 A2998 RMK A01 T10051061  RH  066%=      5-min Rain = 0
KEA1 131359Z 21013KT M01/M06 A2998 RMK A01 T10051063  RH  065%=      5-min Rain = 0
KEA1 131400Z 21013KT M01/M06 A2998 RMK A01 T10051063  RH  065%=      5-min Rain = 0
KEA1 131401Z 21011KT M01/M06 A2998 RMK A01 T10051063  RH  065%=      5-min Rain = 0
KEA1 131402Z 21010KT M01/M06 A2998 RMK A01 T10051064  RH  064%=      5-min Rain = 0
KEA1 131403Z 21012KT M01/M06 A2998 RMK A01 T10051064  RH  064%=      5-min Rain = 0
KEA1 131404Z 21013KT M00/M06 A2998 RMK A01 T10041062  RH  065%=      5-min Rain = 0
KEA1 131405Z 21012KT M00/M06 A2998 RMK A01 T10021059  RH  066%=      5-min Rain = 0
KEA1 131406Z 21010KT M00/M06 A2998 RMK A01 T10011058  RH  066%=      5-min Rain = 0
KEA1 131407Z 21013G18KT 00/06 A2998 RMK A01 T00-00-57  RH  065%=      5-min Rain = 0
KEA1 131408Z 21011KT 00/M06 A2998 RMK A01 T00021056  RH  065%=      5-min Rain = 0
KEA1 131409Z 21012KT 00/M06 A2998 RMK A01 T00021055  RH  065%=      5-min Rain = 0
KEA1 131410Z 21011KT 00/M06 A2998 RMK A01 T00031055  RH  065%=      5-min Rain = 0
KEA1 131411Z 21011KT 00/M06 A2998 RMK A01 T00031056  RH  065%=      5-min Rain = 0
KEA1 131412Z 21014KT 00/M06 A2998 RMK A01 T00041058  RH  063%=      5-min Rain = 0
KEA1 131413Z 21013KT 00/M06 A2998 RMK A01 T00041058  RH  063%=      5-min Rain = 0
KEA1 131414Z 21013KT 00/M06 A2998 RMK A01 T00041057  RH  064%=      5-min Rain = 0
KEA1 131415Z 21012KT 01/M06 A2998 RMK A01 T00061055  RH  064%=      5-min Rain = 0
KEA1 131416Z 21013KT 01/M06 A2998 RMK A01 T00061056  RH  063%=      5-min Rain = 0
KEA1 131417Z 22013KT 01/M06 A2998 RMK A01 T00071057  RH  062%=      5-min Rain = 0
KEA1 131418Z 22014KT 01/M05 A2998 RMK A01 T00081054  RH  063%=      5-min Rain = 0
KEA1 131419Z 22012KT 01/M05 A2998 RMK A01 T00091050  RH  064%=      5-min Rain = 0
KEA1 131420Z 22010KT 01/M05 A2998 RMK A01 T00101050  RH  064%=      5-min Rain = 0
KEA1 131421Z 22014KT 01/M05 A2998 RMK A01 T00111050  RH  063%=      5-min Rain = 0
KEA1 131422Z 23014KT 01/M05 A2998 RMK A01 T00121052  RH  062%=      5-min Rain = 0
KEA1 131423Z 22016KT 01/M05 A2998 RMK A01 T00121053  RH  062%=      5-min Rain = 0
KEA1 131424Z 22012KT 01/M06 A2998 RMK A01 T00121055  RH  061%=      5-min Rain = 0
KEA1 131425Z 22013KT 01/M05 A2998 RMK A01 T00121054  RH  061%=      5-min Rain = 0
KEA1 131426Z 22013KT 01/M05 A2998 RMK A01 T00131051  RH  062%=      5-min Rain = 0
KEA1 131427Z 22012KT 01/M05 A2998 RMK A01 T00141050  RH  062%=      5-min Rain = 0
KEA1 131428Z 22011KT 02/M05 A2998 RMK A01 T00151049  RH  062%=      5-min Rain = 0
KEA1 131429Z 22012KT 02/M05 A2998 RMK A01 T00161048  RH  063%=      5-min Rain = 0
KEA1 131430Z 22011KT 02/M05 A2998 RMK A01 T00171049  RH  062%=      5-min Rain = 0
KEA1 131431Z 23011KT 02/M05 A2998 RMK A01 T00171049  RH  061%=      5-min Rain = 0
KEA1 131432Z 23013KT 02/M05 A2998 RMK A01 T00181050  RH  060%=      5-min Rain = 0
KEA1 131433Z 23014KT 02/M05 A2998 RMK A01 T00181049  RH  061%=      5-min Rain = 0
KEA1 131434Z 22015KT 02/M05 A2998 RMK A01 T00181051  RH  060%=      5-min Rain = 0
KEA1 131435Z 23013KT 02/M05 A2998 RMK A01 T00191050  RH  061%=      5-min Rain = 0
KEA1 131436Z 21013G18KT 02/M05 A2998 RMK A01 T00211047  RH  061%=      5-min Rain = 0
KEA1 131437Z 22013KT 02/M05 A2998 RMK A01 T00221048  RH  060%=      5-min Rain = 0
KEA1 131438Z 21011KT 02/M05 A2998 RMK A01 T00231049  RH  059%=      5-min Rain = 0
KEA1 131439Z 22015KT 02/M05 A2998 RMK A01 T00241048  RH  059%=      5-min Rain = 0
KEA1 131440Z 22014KT 02/M05 A2998 RMK A01 T00241048  RH  059%=      5-min Rain = 0
KEA1 131441Z 22014G19KT 03/M05 A2997 RMK A01 T00251050  RH  058%=      5-min Rain = 0
KEA1 131442Z 23013KT 03/M05 A2998 RMK A01 T00261048  RH  058%=      5-min Rain = 0
KEA1 131443Z 22012KT 03/M05 A2998 RMK A01 T00271048  RH  058%=      5-min Rain = 0
KEA1 131444Z 23012KT 03/M05 A2998 RMK A01 T00281048  RH  057%=      5-min Rain = 0
KEA1 131445Z 23011KT 03/M05 A2998 RMK A01 T00281047  RH  058%=      5-min Rain = 0
KEA1 131446Z 23013KT 03/M05 A2998 RMK A01 T00301045  RH  058%=      5-min Rain = 0
KEA1 131447Z 23011KT 03/M05 A2998 RMK A01 T00301046  RH  057%=      5-min Rain = 0
KEA1 131448Z 24014KT 03/M05 A2998 RMK A01 T00301046  RH  057%=      5-min Rain = 0
KEA1 131449Z 24014KT 03/M05 A2998 RMK A01 T00301049  RH  056%=      5-min Rain = 0
KEA1 131450Z 23015KT 03/M05 A2998 RMK A01 T00301048  RH  056%=      5-min Rain = 0
KEA1 131451Z 23016KT 03/M05 A2998 RMK A01 T00301049  RH  056%=      5-min Rain = 0
KEA1 131452Z 22012G17KT 03/M05 A2998 RMK A01 T00311046  RH  057%=      5-min Rain = 0
KEA1 131453Z 23013KT 03/M05 A2998 RMK A01 T00331046  RH  056%=      5-min Rain = 0
KEA1 131454Z 24015KT 03/M05 A2998 RMK A01 T00341049  RH  055%=      5-min Rain = 0
KEA1 131455Z 23014KT 03/M05 A2998 RMK A01 T00331049  RH  055%=      5-min Rain = 0
KEA1 131456Z 23015KT 03/M05 A2998 RMK A01 T00331050  RH  055%=      5-min Rain = 0
KEA1 131457Z 23016KT 03/M05 A2998 RMK A01 T00331050  RH  054%=      5-min Rain = 0
KEA1 131458Z 23015KT 03/M05 A2998 RMK A01 T00341050  RH  054%=      5-min Rain = 0
KEA1 131459Z 22015KT 03/M05 A2998 RMK A01 T00341053  RH  053%=      5-min Rain = 0
KEA1 131500Z 23011KT 03/M05 A2998 RMK A01 T00341052  RH  054%=      5-min Rain = 0
KEA1 131501Z 23011KT 04/M05 A2998 RMK A01 T00361047  RH  054%=      5-min Rain = 0
KEA1 131502Z 23010KT 04/M05 A2998 RMK A01 T00381050  RH  053%=      5-min Rain = 0
KEA1 131503Z 24011KT 04/M05 A2998 RMK A01 T00391050  RH  052%=      5-min Rain = 0
KEA1 131504Z 23009KT 04/M05 A2998 RMK A01 T00391049  RH  053%=      5-min Rain = 0
KEA1 131505Z 22011KT 04/M05 A2997 RMK A01 T00401049  RH  052%=      5-min Rain = 0
KEA1 131506Z 22012KT 04/M05 A2997 RMK A01 T00411046  RH  053%=      5-min Rain = 0
KEA1 131507Z 23013KT 04/M05 A2997 RMK A01 T00421046  RH  053%=      5-min Rain = 0
KEA1 131508Z 23015KT 04/M05 A2997 RMK A01 T00411049  RH  052%=      5-min Rain = 0
KEA1 131509Z 23016KT 04/M05 A2997 RMK A01 T00401050  RH  052%=      5-min Rain = 0
KEA1 131510Z 23015KT 04/M05 A2997 RMK A01 T00401052  RH  051%=      5-min Rain = 0
KEA1 131511Z 23014KT 04/M05 A2997 RMK A01 T00401049  RH  052%=      5-min Rain = 0
KEA1 131512Z 23015KT 04/M05 A2997 RMK A01 T00411048  RH  052%=      5-min Rain = 0
KEA1 131513Z 23013KT 04/M05 A2997 RMK A01 T00421048  RH  052%=      5-min Rain = 0
KEA1 131514Z 23012KT 04/M05 A2997 RMK A01 T00441046  RH  052%=      5-min Rain = 0
KEA1 131515Z 22010KT 05/M04 A2997 RMK A01 T00461044  RH  052%=      5-min Rain = 0
KEA1 131516Z 22013KT 05/M04 A2997 RMK A01 T00481041  RH  053%=      5-min Rain = 0
KEA1 131517Z 23011KT 05/M05 A2997 RMK A01 T00491045  RH  050%=      5-min Rain = 0
KEA1 131518Z 22013KT 05/M05 A2997 RMK A01 T00491047  RH  050%=      5-min Rain = 0
KEA1 131519Z 23010KT 05/M05 A2997 RMK A01 T00491046  RH  050%=      5-min Rain = 0
KEA1 131520Z 24013KT 05/M05 A2997 RMK A01 T00521045  RH  050%=      5-min Rain = 0
KEA1 131521Z 24013KT 05/M05 A2997 RMK A01 T00521050  RH  048%=      5-min Rain = 0
KEA1 131522Z 23013KT 05/M05 A2997 RMK A01 T00521050  RH  048%=      5-min Rain = 0
KEA1 131523Z 23012G17KT 05/M05 A2997 RMK A01 T00521049  RH  048%=      5-min Rain = 0
KEA1 131524Z 23014KT 05/M05 A2997 RMK A01 T00521047  RH  049%=      5-min Rain = 0
KEA1 131525Z 23011KT 05/M05 A2997 RMK A01 T00531045  RH  049%=      5-min Rain = 0
KEA1 131526Z 24013KT 05/M05 A2997 RMK A01 T00541046  RH  048%=      5-min Rain = 0
KEA1 131527Z 23012KT 05/M05 A2997 RMK A01 T00541049  RH  047%=      5-min Rain = 0
KEA1 131528Z 22012KT 06/M05 A2997 RMK A01 T00561045  RH  048%=      5-min Rain = 0
KEA1 131529Z 23012KT 06/M04 A2997 RMK A01 T00581042  RH  049%=      5-min Rain = 0
KEA1 131530Z 23011KT 06/M04 A2997 RMK A01 T00601042  RH  048%=      5-min Rain = 0
KEA1 131531Z 23010KT 06/M04 A2997 RMK A01 T00611038  RH  049%=      5-min Rain = 0
KEA1 131532Z 22013KT 06/M04 A2997 RMK A01 T00641036  RH  049%=      5-min Rain = 0
KEA1 131533Z 22012KT 06/M04 A2997 RMK A01 T00641040  RH  047%=      5-min Rain = 0
KEA1 131534Z 21011KT 06/M04 A2997 RMK A01 T00641040  RH  047%=      5-min Rain = 0
KEA1 131535Z 22014KT 07/M04 A2997 RMK A01 T00661040  RH  047%=      5-min Rain = 0
KEA1 131536Z 23013KT 07/M04 A2997 RMK A01 T00651044  RH  045%=      5-min Rain = 0
KEA1 131537Z 22010KT 07/M04 A2997 RMK A01 T00651041  RH  047%=      5-min Rain = 0
KEA1 131538Z 22010KT 07/M03 A2997 RMK A01 T00691034  RH  048%=      5-min Rain = 0
KEA1 131539Z 23012KT 07/M04 A2997 RMK A01 T00721035  RH  047%=      5-min Rain = 0
KEA1 131540Z 22011KT 07/M04 A2997 RMK A01 T00721040  RH  045%=      5-min Rain = 0
KEA1 131541Z 22011KT 07/M04 A2996 RMK A01 T00711036  RH  046%=      5-min Rain = 0
KEA1 131542Z 22013KT 07/M04 A2996 RMK A01 T00731035  RH  046%=      5-min Rain = 0
KEA1 131543Z 22012KT 07/M04 A2996 RMK A01 T00731035  RH  046%=      5-min Rain = 0
KEA1 131544Z 22010KT 07/M04 A2996 RMK A01 T00741036  RH  046%=      5-min Rain = 0
KEA1 131545Z 22012KT 08/M04 A2996 RMK A01 T00751035  RH  046%=      5-min Rain = 0
KEA1 131546Z 23013KT 08/M04 A2996 RMK A01 T00771036  RH  045%=      5-min Rain = 0
KEA1 131547Z 22014KT 08/M04 A2996 RMK A01 T00771038  RH  044%=      5-min Rain = 0
KEA1 131548Z 22012KT 08/M04 A2996 RMK A01 T00781039  RH  043%=      5-min Rain = 0
KEA1 131549Z 23014KT 08/M04 A2996 RMK A01 T00791038  RH  043%=      5-min Rain = 0
KEA1 131550Z 22014KT 08/M04 A2996 RMK A01 T00811039  RH  042%=      5-min Rain = 0
KEA1 131551Z 23010KT 08/M04 A2997 RMK A01 T00811038  RH  043%=      5-min Rain = 0
KEA1 131552Z 23009KT 08/M04 A2997 RMK A01 T00831035  RH  043%=      5-min Rain = 0
KEA1 131553Z 23010KT 09/M03 A2997 RMK A01 T00861031  RH  043%=      5-min Rain = 0
KEA1 131554Z 23011KT 09/M03 A2996 RMK A01 T00891031  RH  043%=      5-min Rain = 0
KEA1 131555Z 22013KT 09/M03 A2996 RMK A01 T00901033  RH  042%=      5-min Rain = 0
KEA1 131556Z 22014KT 09/M04 A2996 RMK A01 T00901037  RH  041%=      5-min Rain = 0
KEA1 131557Z 22014KT 09/M03 A2996 RMK A01 T00901034  RH  042%=      5-min Rain = 0
KEA1 131558Z 23014KT 09/M04 A2996 RMK A01 T00891037  RH  041%=      5-min Rain = 0
KEA1 131559Z 22013KT 09/M04 A2996 RMK A01 T00881037  RH  041%=      5-min Rain = 0
KEA1 131600Z 23015KT 09/M04 A2996 RMK A01 T00891036  RH  041%=      5-min Rain = 0
KEA1 131601Z 24012KT 09/M04 A2996 RMK A01 T00891036  RH  041%=      5-min Rain = 0
KEA1 131602Z 23013KT 09/M03 A2996 RMK A01 T00911034  RH  041%=      5-min Rain = 0
KEA1 131603Z 23014KT 09/M03 A2996 RMK A01 T00921033  RH  041%=      5-min Rain = 0
KEA1 131604Z 22014KT 09/M03 A2996 RMK A01 T00921034  RH  041%=      5-min Rain = 0
KEA1 131605Z 22014KT 09/M04 A2996 RMK A01 T00931036  RH  040%=      5-min Rain = 0
KEA1 131606Z 22016KT 09/M04 A2996 RMK A01 T00931039  RH  039%=      5-min Rain = 0
KEA1 131607Z 23013KT 09/M04 A2996 RMK A01 T00931038  RH  039%=      5-min Rain = 0
KEA1 131608Z 24012KT 09/M04 A2997 RMK A01 T00941036  RH  040%=      5-min Rain = 0
KEA1 131609Z 23012KT 10/M03 A2996 RMK A01 T00951034  RH  040%=      5-min Rain = 0
KEA1 131610Z 23014KT 10/M04 A2997 RMK A01 T00961036  RH  039%=      5-min Rain = 0
KEA1 131611Z 23013KT 10/M04 A2997 RMK A01 T00971038  RH  038%=      5-min Rain = 0
KEA1 131612Z 24010KT 10/M04 A2997 RMK A01 T00981036  RH  039%=      5-min Rain = 0
KEA1 131613Z 24010KT 10/M04 A2997 RMK A01 T01001037  RH  038%=      5-min Rain = 0
KEA1 131614Z 23011KT 10/M03 A2997 RMK A01 T01021033  RH  038%=      5-min Rain = 0
KEA1 131615Z 24012KT 10/M04 A2997 RMK A01 T01021036  RH  038%=      5-min Rain = 0
KEA1 131616Z 24012KT 10/M03 A2997 RMK A01 T01031034  RH  038%=      5-min Rain = 0
KEA1 131617Z 24012KT 10/M04 A2997 RMK A01 T01031038  RH  037%=      5-min Rain = 0
KEA1 131618Z 25011KT 10/M04 A2997 RMK A01 T01041039  RH  036%=      5-min Rain = 0
KEA1 131619Z 24010KT 10/M04 A2997 RMK A01 T01031038  RH  037%=      5-min Rain = 0
KEA1 131620Z 23014KT 10/M04 A2996 RMK A01 T01041035  RH  037%=      5-min Rain = 0
KEA1 131621Z 25012KT 10/M04 A2997 RMK A01 T01041039  RH  037%=      5-min Rain = 0
KEA1 131622Z 24011KT 10/M04 A2996 RMK A01 T01041040  RH  036%=      5-min Rain = 0
KEA1 131623Z 24011KT 11/M04 A2996 RMK A01 T01051038  RH  036%=      5-min Rain = 0
KEA1 131624Z 23012KT 11/M04 A2996 RMK A01 T01071037  RH  036%=      5-min Rain = 0
KEA1 131625Z 24011KT 11/M04 A2996 RMK A01 T01091036  RH  036%=      5-min Rain = 0
KEA1 131626Z 24010KT 11/M04 A2996 RMK A01 T01101037  RH  036%=      5-min Rain = 0
KEA1 131627Z 26009G15KT 11/M03 A2996 RMK A01 T01131033  RH  036%=      5-min Rain = 0
KEA1 131628Z 26016KT 12/M03 A2996 RMK A01 T01171034  RH  034%=      5-min Rain = 0
KEA1 131629Z 26014KT 12/M04 A2996 RMK A01 T01171037  RH  034%=      5-min Rain = 0
KEA1 131630Z 25014KT 12/M04 A2996 RMK A01 T01161037  RH  034%=      5-min Rain = 0
KEA1 131631Z 26014KT 12/M04 A2996 RMK A01 T01171036  RH  034%=      5-min Rain = 0
KEA1 131632Z 25013KT 12/M04 A2996 RMK A01 T01191037  RH  034%=      5-min Rain = 0
KEA1 131633Z 25015KT 12/M04 A2996 RMK A01 T01191036  RH  033%=      5-min Rain = 0
KEA1 131634Z 25016KT 12/M04 A2996 RMK A01 T01191038  RH  033%=      5-min Rain = 0
KEA1 131635Z 25014KT 12/M04 A2996 RMK A01 T01181038  RH  033%=      5-min Rain = 0
KEA1 131636Z 24014KT 12/M04 A2996 RMK A01 T01191037  RH  033%=      5-min Rain = 0
KEA1 131637Z 25017KT 12/M04 A2996 RMK A01 T01201038  RH  033%=      5-min Rain = 0
KEA1 131638Z 25015KT 12/M04 A2996 RMK A01 T01211038  RH  033%=      5-min Rain = 0
KEA1 131639Z 25018KT 12/M04 A2996 RMK A01 T01221038  RH  033%=      5-min Rain = 0
KEA1 131640Z 25016KT 12/M04 A2996 RMK A01 T01231037  RH  033%=      5-min Rain = 0
KEA1 131641Z 25018KT 13/M04 A2996 RMK A01 T01261037  RH  032%=      5-min Rain = 0
KEA1 131642Z 25015KT 13/M04 A2996 RMK A01 T01261037  RH  032%=      5-min Rain = 0
KEA1 131643Z 24016KT 13/M04 A2996 RMK A01 T01281039  RH  031%=      5-min Rain = 0
KEA1 131644Z 25017KT 13/M04 A2996 RMK A01 T01291041  RH  031%=      5-min Rain = 0
KEA1 131645Z 24014KT 13/M04 A2996 RMK A01 T01321040  RH  030%=      5-min Rain = 0
KEA1 131646Z 24017G23KT 14/M04 A2996 RMK A01 T01361040  RH  029%=      5-min Rain = 0
KEA1 131647Z 25017KT 14/M04 A2995 RMK A01 T01351043  RH  029%=      5-min Rain = 0
KEA1 131648Z 25018KT 13/M04 A2996 RMK A01 T01331042  RH  029%=      5-min Rain = 0
KEA1 131649Z 24020KT 13/M04 A2995 RMK A01 T01321042  RH  030%=      5-min Rain = 0
KEA1 131650Z 25017KT 13/M05 A2996 RMK A01 T01281045  RH  030%=      5-min Rain = 0
KEA1 131651Z 24018KT 13/M04 A2995 RMK A01 T01281042  RH  030%=      5-min Rain = 0
KEA1 131652Z 24017KT 13/M04 A2995 RMK A01 T01281041  RH  030%=      5-min Rain = 0
KEA1 131653Z 26015G20KT 13/M04 A2996 RMK A01 T01321038  RH  030%=      5-min Rain = 0
KEA1 131654Z 26016KT 13/M04 A2996 RMK A01 T01341041  RH  029%=      5-min Rain = 0
KEA1 131655Z 25017KT 13/M04 A2996 RMK A01 T01331043  RH  029%=      5-min Rain = 0
KEA1 131656Z 25017KT 13/M04 A2996 RMK A01 T01321043  RH  029%=      5-min Rain = 0
KEA1 131657Z 26015KT 13/M04 A2996 RMK A01 T01321042  RH  030%=      5-min Rain = 0
KEA1 131658Z 25017KT 13/M04 A2996 RMK A01 T01341041  RH  029%=      5-min Rain = 0
KEA1 131659Z 25018KT 13/M04 A2996 RMK A01 T01341043  RH  029%=      5-min Rain = 0
KEA1 131700Z 24015KT 13/M05 A2996 RMK A01 T01311045  RH  029%=      5-min Rain = 0
KEA1 131701Z 25016KT 13/M04 A2996 RMK A01 T01321041  RH  030%=      5-min Rain = 0
KEA1 131702Z 25015KT 13/M04 A2996 RMK A01 T01331041  RH  030%=      5-min Rain = 0
KEA1 131703Z 25013KT 13/M04 A2996 RMK A01 T01341040  RH  030%=      5-min Rain = 0
KEA1 131704Z 25013KT 14/M04 A2996 RMK A01 T01351040  RH  029%=      5-min Rain = 0
KEA1 131705Z 25012KT 14/M04 A2996 RMK A01 T01371039  RH  029%=      5-min Rain = 0
KEA1 131706Z 25014KT 14/M04 A2996 RMK A01 T01401038  RH  029%=      5-min Rain = 0
KEA1 131707Z 25016KT 14/M04 A2995 RMK A01 T01411040  RH  028%=      5-min Rain = 0
KEA1 131708Z 26016KT 14/M04 A2995 RMK A01 T01401040  RH  028%=      5-min Rain = 0
KEA1 131709Z 25014KT 14/M04 A2995 RMK A01 T01401040  RH  028%=      5-min Rain = 0
KEA1 131710Z 26015KT 15/M04 A2995 RMK A01 T01451040  RH  028%=      5-min Rain = 0
KEA1 131711Z 25015G20KT 14/M04 A2995 RMK A01 T01441042  RH  027%=      5-min Rain = 0
KEA1 131712Z 25015KT 15/M04 A2995 RMK A01 T01451042  RH  027%=      5-min Rain = 0
KEA1 131713Z 27013KT 15/M04 A2995 RMK A01 T01471040  RH  027%=      5-min Rain = 0
KEA1 131714Z 26016KT 15/M04 A2995 RMK A01 T01481042  RH  027%=      5-min Rain = 0
KEA1 131715Z 26016KT 15/M05 A2995 RMK A01 T01471045  RH  026%=      5-min Rain = 0
KEA1 131716Z 26016KT 15/M05 A2995 RMK A01 T01471046  RH  026%=      5-min Rain = 0
KEA1 131717Z 26014KT 15/M05 A2995 RMK A01 T01461046  RH  026%=      5-min Rain = 0
KEA1 131718Z 25013KT 15/M04 A2995 RMK A01 T01471044  RH  026%=      5-min Rain = 0
KEA1 131719Z 25014KT 15/M04 A2995 RMK A01 T01481044  RH  026%=      5-min Rain = 0
KEA1 131720Z 25013KT 15/M04 A2995 RMK A01 T01491043  RH  026%=      5-min Rain = 0
KEA1 131721Z 27018KT 15/M04 A2995 RMK A01 T01531044  RH  025%=      5-min Rain = 0
KEA1 131722Z 26017KT 15/M05 A2995 RMK A01 T01501049  RH  025%=      5-min Rain = 0
KEA1 131723Z 27017KT 15/M05 A2995 RMK A01 T01511049  RH  025%=      5-min Rain = 0
KEA1 131724Z 26017KT 15/M05 A2995 RMK A01 T01501052  RH  024%=      5-min Rain = 0
KEA1 131725Z 25015KT 15/M05 A2995 RMK A01 T01491051  RH  025%=      5-min Rain = 0
KEA1 131726Z 26013KT 15/M05 A2995 RMK A01 T01491049  RH  025%=      5-min Rain = 0
KEA1 131727Z 25014KT 15/M05 A2995 RMK A01 T01531046  RH  025%=      5-min Rain = 0
KEA1 131728Z 25016KT 15/M05 A2994 RMK A01 T01531048  RH  025%=      5-min Rain = 0
KEA1 131729Z 25017KT 15/M05 A2994 RMK A01 T01521048  RH  025%=      5-min Rain = 0
KEA1 131730Z 25014KT 15/M05 A2994 RMK A01 T01521050  RH  024%=      5-min Rain = 0
KEA1 131731Z 25015G21KT 15/M05 A2995 RMK A01 T01531048  RH  025%=      5-min Rain = 0
KEA1 131732Z 25019KT 16/M05 A2994 RMK A01 T01551051  RH  024%=      5-min Rain = 0
KEA1 131733Z 24016KT 15/M05 A2995 RMK A01 T01521054  RH  024%=      5-min Rain = 0
KEA1 131734Z 24015KT 15/M05 A2994 RMK A01 T01531051  RH  024%=      5-min Rain = 0
KEA1 131735Z 23016KT 15/M05 A2994 RMK A01 T01541051  RH  024%=      5-min Rain = 0
KEA1 131736Z 25018KT 15/M05 A2995 RMK A01 T01541050  RH  024%=      5-min Rain = 0
KEA1 131737Z 25019KT 15/M05 A2994 RMK A01 T01531053  RH  024%=      5-min Rain = 0
KEA1 131738Z 24018KT 15/M06 A2994 RMK A01 T01521057  RH  023%=      5-min Rain = 0
KEA1 131739Z 24017KT 15/M06 A2994 RMK A01 T01511056  RH  024%=      5-min Rain = 0
KEA1 131740Z 26014G21KT 15/M05 A2994 RMK A01 T01531054  RH  024%=      5-min Rain = 0
KEA1 131741Z 25018KT 15/M06 A2994 RMK A01 T01531056  RH  023%=      5-min Rain = 0
KEA1 131742Z 24017KT 15/M06 A2994 RMK A01 T01531056  RH  023%=      5-min Rain = 0
KEA1 131743Z 24016KT 15/M06 A2994 RMK A01 T01521058  RH  023%=      5-min Rain = 0
KEA1 131744Z 25014KT 15/M06 A2994 RMK A01 T01511059  RH  023%=      5-min Rain = 0
KEA1 131745Z 26017KT 15/M06 A2994 RMK A01 T01511058  RH  023%=      5-min Rain = 0
KEA1 131746Z 25015KT 15/M05 A2994 RMK A01 T01541053  RH  023%=      5-min Rain = 0
KEA1 131747Z 26017KT 16/M05 A2994 RMK A01 T01581051  RH  023%=      5-min Rain = 0
KEA1 131748Z 25017KT 16/M05 A2994 RMK A01 T01571054  RH  023%=      5-min Rain = 0
KEA1 131749Z 25014G19KT 16/M05 A2994 RMK A01 T01571052  RH  023%=      5-min Rain = 0
KEA1 131750Z 25015KT 16/M05 A2994 RMK A01 T01591050  RH  023%=      5-min Rain = 0
KEA1 131751Z 24013KT 16/M05 A2994 RMK A01 T01581051  RH  023%=      5-min Rain = 0
KEA1 131752Z 24013KT 16/M05 A2994 RMK A01 T01591050  RH  023%=      5-min Rain = 0
KEA1 131753Z 25015KT 16/M05 A2994 RMK A01 T01601049  RH  023%=      5-min Rain = 0
KEA1 131754Z 27015KT 16/M05 A2994 RMK A01 T01591051  RH  023%=      5-min Rain = 0
KEA1 131755Z 26012KT 16/M05 A2995 RMK A01 T01571050  RH  024%=      5-min Rain = 0
KEA1 131756Z 27015KT 16/M05 A2994 RMK A01 T01581048  RH  024%=      5-min Rain = 0
KEA1 131757Z 26016KT 16/M05 A2994 RMK A01 T01581049  RH  024%=      5-min Rain = 0
KEA1 131758Z 26015KT 16/M05 A2995 RMK A01 T01581048  RH  024%=      5-min Rain = 0
KEA1 131759Z 25017KT 16/M05 A2995 RMK A01 T01581049  RH  024%=      5-min Rain = 0
KEA1 131800Z 25016KT 16/M05 A2995 RMK A01 T01581049  RH  024%=      5-min Rain = 0
KEA1 131801Z 25014KT 16/M05 A2995 RMK A01 T01581051  RH  023%=      5-min Rain = 0
KEA1 131802Z 26011KT 16/M05 A2995 RMK A01 T01591047  RH  024%=      5-min Rain = 0
KEA1 131803Z 27015KT 16/M05 A2995 RMK A01 T01641046  RH  023%=      5-min Rain = 0
KEA1 131804Z 27012KT 16/M05 A2995 RMK A01 T01631049  RH  023%=      5-min Rain = 0
KEA1 131805Z 26014KT 16/M05 A2995 RMK A01 T01631048  RH  023%=      5-min Rain = 0
KEA1 131806Z 26012KT 16/M05 A2995 RMK A01 T01621049  RH  023%=      5-min Rain = 0
KEA1 131807Z 27011KT 16/M05 A2995 RMK A01 T01621047  RH  023%=      5-min Rain = 0
KEA1 131808Z 28013KT 17/M05 A2995 RMK A01 T01651045  RH  023%=      5-min Rain = 0
KEA1 131809Z 28012KT 16/M05 A2995 RMK A01 T01641047  RH  023%=      5-min Rain = 0
KEA1 131810Z 29011KT 16/M05 A2994 RMK A01 T01631046  RH  023%=      5-min Rain = 0
KEA1 131811Z 28013KT 16/M05 A2994 RMK A01 T01621045  RH  024%=      5-min Rain = 0
KEA1 131812Z 27012KT 16/M04 A2994 RMK A01 T01631044  RH  024%=      5-min Rain = 0
KEA1 131813Z 26012KT 16/M05 A2994 RMK A01 T01631045  RH  024%=      5-min Rain = 0
KEA1 131814Z 26014KT 17/M05 A2994 RMK A01 T01651045  RH  023%=      5-min Rain = 0
KEA1 131815Z 26014KT 16/M05 A2994 RMK A01 T01641046  RH  023%=      5-min Rain = 0
KEA1 131816Z 26012KT 16/M05 A2994 RMK A01 T01621047  RH  024%=      5-min Rain = 0
KEA1 131817Z 27011KT 16/M05 A2993 RMK A01 T01601047  RH  024%=      5-min Rain = 0
KEA1 131818Z 26013KT 16/M05 A2993 RMK A01 T01601045  RH  024%=      5-min Rain = 0
KEA1 131819Z 25013KT 16/M04 A2993 RMK A01 T01631044  RH  024%=      5-min Rain = 0
KEA1 131820Z 24013KT 17/M05 A2993 RMK A01 T01651046  RH  023%=      5-min Rain = 0
KEA1 131821Z 24011KT 16/M05 A2993 RMK A01 T01641046  RH  023%=      5-min Rain = 0
KEA1 131822Z 26011KT 16/M05 A2993 RMK A01 T01621047  RH  023%=      5-min Rain = 0
KEA1 131823Z 27014KT 16/M05 A2993 RMK A01 T01611046  RH  024%=      5-min Rain = 0
KEA1 131824Z 25012KT 16/M05 A2993 RMK A01 T01621046  RH  024%=      5-min Rain = 0
KEA1 131825Z 25012KT 16/M05 A2993 RMK A01 T01631046  RH  024%=      5-min Rain = 0
KEA1 131826Z 27012KT 16/M05 A2993 RMK A01 T01631045  RH  024%=      5-min Rain = 0
KEA1 131827Z 26012KT 17/M05 A2993 RMK A01 T01651045  RH  023%=      5-min Rain = 0
KEA1 131828Z 28012KT 17/M05 A2993 RMK A01 T01661045  RH  023%=      5-min Rain = 0
KEA1 131829Z 27013KT 17/M05 A2993 RMK A01 T01671045  RH  023%=      5-min Rain = 0
KEA1 131830Z 26009KT 17/M05 A2993 RMK A01 T01661046  RH  023%=      5-min Rain = 0
KEA1 131831Z 27008KT 17/M05 A2993 RMK A01 T01651045  RH  023%=      5-min Rain = 0
KEA1 131832Z 26013KT 17/M04 A2993 RMK A01 T01661044  RH  023%=      5-min Rain = 0
KEA1 131833Z 26012KT 17/M05 A2993 RMK A01 T01681047  RH  023%=      5-min Rain = 0
KEA1 131834Z 26010KT 17/M05 A2992 RMK A01 T01691046  RH  023%=      5-min Rain = 0
KEA1 131835Z 27012KT 17/M05 A2992 RMK A01 T01721046  RH  022%=      5-min Rain = 0
KEA1 131836Z 28011KT 17/M05 A2992 RMK A01 T01721046  RH  022%=      5-min Rain = 0
KEA1 131837Z 28008KT 17/M04 A2992 RMK A01 T01741044  RH  022%=      5-min Rain = 0
KEA1 131838Z 27010KT 18/M04 A2992 RMK A01 T01771044  RH  022%=      5-min Rain = 0
KEA1 131839Z 26011KT 18/M05 A2992 RMK A01 T01751048  RH  021%=      5-min Rain = 0
KEA1 131840Z 27013KT 18/M05 A2992 RMK A01 T01751048  RH  021%=      5-min Rain = 0
KEA1 131841Z 26010KT 18/M05 A2992 RMK A01 T01751048  RH  021%=      5-min Rain = 0
KEA1 131842Z 28009KT 18/M04 A2992 RMK A01 T01791043  RH  022%=      5-min Rain = 0
KEA1 131843Z 28012KT 18/M05 A2992 RMK A01 T01821046  RH  021%=      5-min Rain = 0
KEA1 131844Z 27010KT 18/M05 A2992 RMK A01 T01801050  RH  020%=      5-min Rain = 0
KEA1 131845Z 27009KT 18/M05 A2992 RMK A01 T01791050  RH  021%=      5-min Rain = 0
KEA1 131846Z 27012KT 18/M05 A2992 RMK A01 T01791049  RH  021%=      5-min Rain = 0
KEA1 131847Z 26011KT 18/M05 A2992 RMK A01 T01771050  RH  021%=      5-min Rain = 0
KEA1 131848Z 25010KT 17/M05 A2992 RMK A01 T01731053  RH  021%=      5-min Rain = 0
KEA1 131849Z 25009KT 17/M05 A2992 RMK A01 T01721052  RH  021%=      5-min Rain = 0
KEA1 131850Z 25010KT 18/M05 A2992 RMK A01 T01751050  RH  021%=      5-min Rain = 0
KEA1 131851Z 25010KT 17/M05 A2992 RMK A01 T01741053  RH  021%=      5-min Rain = 0
KEA1 131852Z 28010KT 17/M05 A2991 RMK A01 T01741049  RH  021%=      5-min Rain = 0
KEA1 131853Z 26010KT 18/M05 A2991 RMK A01 T01761048  RH  021%=      5-min Rain = 0
KEA1 131854Z 26011KT 18/M05 A2991 RMK A01 T01791048  RH  021%=      5-min Rain = 0
KEA1 131855Z 26011KT 18/M05 A2991 RMK A01 T01821047  RH  021%=      5-min Rain = 0
KEA1 131856Z 26009KT 18/M05 A2991 RMK A01 T01811051  RH  020%=      5-min Rain = 0
KEA1 131857Z 26008KT 18/M05 A2991 RMK A01 T01771052  RH  021%=      5-min Rain = 0
KEA1 131858Z 28008KT 18/M05 A2991 RMK A01 T01771050  RH  021%=      5-min Rain = 0
KEA1 131859Z 27010KT 18/M05 A2991 RMK A01 T01771052  RH  021%=      5-min Rain = 0
KEA1 131900Z 27009KT 18/M05 A2991 RMK A01 T01771050  RH  021%=      5-min Rain = 0
KEA1 131901Z 27013KT 18/M05 A2991 RMK A01 T01771051  RH  021%=      5-min Rain = 0
KEA1 131902Z 27011KT 18/M05 A2991 RMK A01 T01771053  RH  020%=      5-min Rain = 0
KEA1 131903Z 28010KT 18/M05 A2991 RMK A01 T01751051  RH  021%=      5-min Rain = 0
KEA1 131904Z 28010KT 17/M05 A2991 RMK A01 T01741053  RH  021%=      5-min Rain = 0
KEA1 131905Z 28010KT 18/M06 A2991 RMK A01 T01751055  RH  020%=      5-min Rain = 0
KEA1 131906Z 28009KT 18/M05 A2991 RMK A01 T01761053  RH  021%=      5-min Rain = 0
KEA1 131907Z 29009KT 18/M05 A2991 RMK A01 T01791050  RH  021%=      5-min Rain = 0
KEA1 131908Z 27010KT 18/M05 A2991 RMK A01 T01801053  RH  020%=      5-min Rain = 0
KEA1 131909Z 25008KT 18/M06 A2991 RMK A01 T01791057  RH  020%=      5-min Rain = 0
KEA1 131910Z 28008KT 18/M06 A2991 RMK A01 T01771055  RH  020%=      5-min Rain = 0
KEA1 131911Z 28011KT 18/M05 A2991 RMK A01 T01791054  RH  020%=      5-min Rain = 0
KEA1 131912Z 28009KT 18/M06 A299 RMK A01 T01791055  RH  020%=      5-min Rain = 0
KEA1 131913Z 27008KT 18/M05 A2991 RMK A01 T01791052  RH  020%=      5-min Rain = 0
KEA1 131914Z 26006KT 18/M05 A299 RMK A01 T01801051  RH  020%=      5-min Rain = 0
KEA1 131915Z 27008KT 18/M05 A299 RMK A01 T01821053  RH  020%=      5-min Rain = 0
KEA1 131916Z 25010KT 18/M06 A299 RMK A01 T01801056  RH  020%=      5-min Rain = 0
KEA1 131917Z 28011KT 18/M05 A299 RMK A01 T01791052  RH  020%=      5-min Rain = 0
KEA1 131918Z 27009KT 18/M05 A299 RMK A01 T01781053  RH  020%=      5-min Rain = 0
KEA1 131919Z 26007G13KT 18/M05 A299 RMK A01 T01781053  RH  020%=      5-min Rain = 0
KEA1 131920Z 27010KT 18/M05 A299 RMK A01 T01791052  RH  020%=      5-min Rain = 0
KEA1 131921Z 26008KT 18/M05 A299 RMK A01 T01801053  RH  020%=      5-min Rain = 0
KEA1 131922Z 25006KT 18/M05 A299 RMK A01 T01811053  RH  020%=      5-min Rain = 0
KEA1 131923Z 27007KT 18/M05 A299 RMK A01 T01821051  RH  020%=      5-min Rain = 0
KEA1 131924Z 26006KT 19/M06 A299 RMK A01 T01851055  RH  019%=      5-min Rain = 0
KEA1 131925Z 26007KT 18/M06 A299 RMK A01 T01841055  RH  019%=      5-min Rain = 0
KEA1 131926Z 25008KT 19/M05 A299 RMK A01 T01851054  RH  019%=      5-min Rain = 0
KEA1 131927Z 26006KT 19/M05 A299 RMK A01 T01851054  RH  019%=      5-min Rain = 0
KEA1 131928Z 29006KT 19/M05 A299 RMK A01 T01851054  RH  019%=      5-min Rain = 0
KEA1 131929Z 29007KT 18/M05 A2989 RMK A01 T01831053  RH  020%=      5-min Rain = 0
KEA1 131930Z 29007KT 19/M05 A299 RMK A01 T01871051  RH  019%=      5-min Rain = 0
KEA1 131931Z 27008KT 19/M05 A299 RMK A01 T01891049  RH  019%=      5-min Rain = 0
KEA1 131932Z 27009KT 19/M05 A2989 RMK A01 T01891052  RH  019%=      5-min Rain = 0
KEA1 131933Z 26008KT 19/M05 A2989 RMK A01 T01871052  RH  019%=      5-min Rain = 0
KEA1 131934Z 25008KT 19/M05 A2989 RMK A01 T01861053  RH  019%=      5-min Rain = 0
KEA1 131935Z 27008KT 18/M05 A2989 RMK A01 T01841053  RH  020%=      5-min Rain = 0
KEA1 131936Z 28008KT 19/M05 A2989 RMK A01 T01861050  RH  020%=      5-min Rain = 0
KEA1 131937Z 26009KT 19/M05 A2989 RMK A01 T01881050  RH  019%=      5-min Rain = 0
KEA1 131938Z 26008KT 19/M06 A2989 RMK A01 T01861055  RH  019%=      5-min Rain = 0
KEA1 131939Z 28006KT 18/M05 A2989 RMK A01 T01821053  RH  020%=      5-min Rain = 0
KEA1 131940Z 29007KT 19/M05 A2989 RMK A01 T01851051  RH  020%=      5-min Rain = 0
KEA1 131941Z 27008KT 19/M06 A2989 RMK A01 T01861055  RH  019%=      5-min Rain = 0
KEA1 131942Z 28006KT 19/M05 A2989 RMK A01 T01851053  RH  019%=      5-min Rain = 0
KEA1 131943Z 27007KT 19/M05 A2989 RMK A01 T01861053  RH  019%=      5-min Rain = 0
KEA1 131944Z 29007KT 19/M06 A2989 RMK A01 T01861056  RH  019%=      5-min Rain = 0
KEA1 131945Z 29006KT 18/M06 A2989 RMK A01 T01831059  RH  019%=      5-min Rain = 0
KEA1 131946Z 30005KT 18/M06 A2989 RMK A01 T01821056  RH  019%=      5-min Rain = 0
KEA1 131947Z 28004KT 19/M05 A2989 RMK A01 T01871053  RH  019%=      5-min Rain = 0
KEA1 131948Z 28006KT 19/M06 A2989 RMK A01 T01891058  RH  018%=      5-min Rain = 0
KEA1 131949Z 28006KT 19/M06 A2989 RMK A01 T01861058  RH  019%=      5-min Rain = 0
KEA1 131950Z 30008KT 19/M06 A2989 RMK A01 T01851060  RH  018%=      5-min Rain = 0
KEA1 131951Z 30007KT 19/M06 A2989 RMK A01 T01851060  RH  018%=      5-min Rain = 0
KEA1 131952Z 31006KT 19/M06 A2989 RMK A01 T01861061  RH  018%=      5-min Rain = 0
KEA1 131953Z 31008KT 19/M06 A2989 RMK A01 T01871057  RH  019%=      5-min Rain = 0
KEA1 131954Z 29007KT 19/M05 A2989 RMK A01 T01881053  RH  019%=      5-min Rain = 0
KEA1 131955Z 27007KT 19/M05 A2989 RMK A01 T01871050  RH  020%=      5-min Rain = 0
KEA1 131956Z 28008KT 19/M05 A2989 RMK A01 T01881050  RH  020%=      5-min Rain = 0
KEA1 131957Z 29005KT 19/M05 A2989 RMK A01 T01881051  RH  019%=      5-min Rain = 0
KEA1 131958Z 31004KT 19/M05 A2989 RMK A01 T01871051  RH  019%=      5-min Rain = 0
KEA1 131959Z 30007KT 19/M05 A2989 RMK A01 T01871050  RH  020%=      5-min Rain = 0
KEA1 132000Z 30007KT 19/M05 A2989 RMK A01 T01881050  RH  019%=      5-min Rain = 0
KEA1 132001Z 29006KT 19/M05 A2989 RMK A01 T01881051  RH  019%=      5-min Rain = 0
KEA1 132002Z 28004G9KT 19/M05 A2989 RMK A01 T01881050  RH  019%=      5-min Rain = 0
KEA1 132003Z 32007KT 19/M05 A2989 RMK A01 T01901051  RH  019%=      5-min Rain = 0
KEA1 132004Z 32006KT 19/M06 A2989 RMK A01 T01901055  RH  019%=      5-min Rain = 0
KEA1 132005Z 30005KT 19/M05 A2989 RMK A01 T01881053  RH  019%=      5-min Rain = 0
KEA1 132006Z 27005KT 19/M05 A2989 RMK A01 T01901050  RH  019%=      5-min Rain = 0
KEA1 132007Z 28006KT 19/M05 A2989 RMK A01 T01921051  RH  019%=      5-min Rain = 0
KEA1 132008Z 28006KT 19/M05 A2989 RMK A01 T01911051  RH  019%=      5-min Rain = 0
KEA1 132009Z 28009KT 19/M05 A2989 RMK A01 T01901049  RH  019%=      5-min Rain = 0
KEA1 132010Z 29007KT 19/M05 A2989 RMK A01 T01921050  RH  019%=      5-min Rain = 0
KEA1 132011Z 29008KT 19/M05 A2989 RMK A01 T01911051  RH  019%=      5-min Rain = 0
KEA1 132012Z 27006KT 19/M05 A2989 RMK A01 T01891053  RH  019%=      5-min Rain = 0
KEA1 132013Z 29003KT 19/M05 A2989 RMK A01 T01891051  RH  019%=      5-min Rain = 0
KEA1 132014Z 30003KT 19/M05 A2989 RMK A01 T01901052  RH  019%=      5-min Rain = 0
KEA1 132015Z 29003KT 19/M05 A2989 RMK A01 T01881054  RH  019%=      5-min Rain = 0
KEA1 132016Z 30005KT 19/M05 A2989 RMK A01 T01881053  RH  019%=      5-min Rain = 0
KEA1 132017Z 30005KT 19/M05 A2989 RMK A01 T01881052  RH  019%=      5-min Rain = 0
KEA1 132018Z 28003KT 19/M05 A2989 RMK A01 T01861052  RH  019%=      5-min Rain = 0
KEA1 132019Z 29002KT 19/M05 A2989 RMK A01 T01861051  RH  019%=      5-min Rain = 0
KEA1 132020Z 27003KT 19/M05 A2989 RMK A01 T01881051  RH  019%=      5-min Rain = 0
KEA1 132021Z 29004KT 19/M05 A2989 RMK A01 T01891052  RH  019%=      5-min Rain = 0
KEA1 132022Z 28005KT 19/M05 A2989 RMK A01 T01901048  RH  020%=      5-min Rain = 0
KEA1 132023Z 29007KT 20/M05 A2989 RMK A01 T01951047  RH  019%=      5-min Rain = 0
KEA1 132024Z 29005KT 19/M05 A2989 RMK A01 T01941051  RH  019%=      5-min Rain = 0
KEA1 132025Z 31003KT 19/M05 A2989 RMK A01 T01931050  RH  019%=      5-min Rain = 0
KEA1 132026Z 34003KT 19/M05 A2989 RMK A01 T01941049  RH  019%=      5-min Rain = 0
KEA1 132027Z 29005KT 20/M05 A2989 RMK A01 T01971049  RH  019%=      5-min Rain = 0
KEA1 132028Z 28005KT 19/M05 A2989 RMK A01 T01941053  RH  018%=      5-min Rain = 0
KEA1 132029Z 32006KT 19/M05 A2989 RMK A01 T01911053  RH  019%=      5-min Rain = 0
KEA1 132030Z 33005KT 19/M05 A2989 RMK A01 T01911050  RH  019%=      5-min Rain = 0
KEA1 132031Z 32004KT 19/M05 A2989 RMK A01 T01931049  RH  019%=      5-min Rain = 0
KEA1 132032Z 29001KT 19/M05 A2989 RMK A01 T01931050  RH  019%=      5-min Rain = 0
KEA1 132033Z 24002KT 19/M05 A2989 RMK A01 T01941048  RH  019%=      5-min Rain = 0
KEA1 132034Z 30004KT 20/M05 A2989 RMK A01 T01951049  RH  019%=      5-min Rain = 0
KEA1 132035Z 31006KT 20/M05 A2989 RMK A01 T01971049  RH  019%=      5-min Rain = 0
KEA1 132036Z 30006KT 20/M05 A2989 RMK A01 T01971050  RH  018%=      5-min Rain = 0
KEA1 132037Z 33005KT 20/M05 A2989 RMK A01 T01971050  RH  018%=      5-min Rain = 0
KEA1 132038Z 34003KT 20/M05 A2989 RMK A01 T01981050  RH  018%=      5-min Rain = 0
KEA1 132039Z 01003KT 20/M05 A2989 RMK A01 T01971051  RH  018%=      5-min Rain = 0
KEA1 132040Z 02003KT 20/M05 A2989 RMK A01 T01981051  RH  018%=      5-min Rain = 0
KEA1 132041Z 04002KT 20/M05 A2989 RMK A01 T01981050  RH  018%=      5-min Rain = 0
KEA1 132042Z 33004KT 20/M05 A2989 RMK A01 T01961051  RH  018%=      5-min Rain = 0
KEA1 132043Z 30003KT 20/M05 A2989 RMK A01 T01951052  RH  018%=      5-min Rain = 0
KEA1 132044Z 31001KT 19/M05 A2989 RMK A01 T01941053  RH  018%=      5-min Rain = 0
KEA1 132045Z 31004KT 20/M05 A2989 RMK A01 T01961049  RH  019%=      5-min Rain = 0
KEA1 132046Z 30004KT 20/M05 A2989 RMK A01 T01981051  RH  018%=      5-min Rain = 0
KEA1 132047Z 31003KT 20/M05 A2989 RMK A01 T01951052  RH  018%=      5-min Rain = 0
KEA1 132048Z 34005KT 20/M05 A2989 RMK A01 T01961050  RH  019%=      5-min Rain = 0
KEA1 132049Z 31006KT 20/M05 A2989 RMK A01 T01961049  RH  019%=      5-min Rain = 0
KEA1 132050Z 28006KT 20/M05 A2989 RMK A01 T01971050  RH  018%=      5-min Rain = 0
KEA1 132051Z 28004KT 20/M05 A2989 RMK A01 T01961050  RH  018%=      5-min Rain = 0
KEA1 132052Z 31002KT 20/M05 A2989 RMK A01 T01971048  RH  019%=      5-min Rain = 0
KEA1 132053Z 34003KT 20/M05 A2989 RMK A01 T02001047  RH  018%=      5-min Rain = 0
KEA1 132054Z 35003KT 20/M05 A2989 RMK A01 T02001051  RH  018%=      5-min Rain = 0
KEA1 132055Z 35003KT 20/M05 A2989 RMK A01 T01991051  RH  018%=      5-min Rain = 0
KEA1 132056Z 34001KT 20/M05 A2989 RMK A01 T01991052  RH  018%=      5-min Rain = 0
KEA1 132057Z 25000KT 20/M05 A2989 RMK A01 T01991052  RH  018%=      5-min Rain = 0
KEA1 132058Z 34001KT 20/M05 A2989 RMK A01 T02001050  RH  018%=      5-min Rain = 0
KEA1 132059Z 32000KT 20/M05 A2989 RMK A01 T02011049  RH  018%=      5-min Rain = 0
KEA1 132100Z 08001KT 20/M05 A2989 RMK A01 T02031047  RH  018%=      5-min Rain = 0
KEA1 132101Z 05004KT 20/M05 A2989 RMK A01 T02031048  RH  018%=      5-min Rain = 0
KEA1 132102Z 06003KT 20/M05 A2989 RMK A01 T02021047  RH  018%=      5-min Rain = 0
KEA1 132103Z 01003KT 20/M05 A2989 RMK A01 T02021046  RH  018%=      5-min Rain = 0
KEA1 132104Z 30003KT 20/M05 A2989 RMK A01 T02021045  RH  018%=      5-min Rain = 0
KEA1 132105Z 31005KT 20/M05 A2989 RMK A01 T02031046  RH  018%=      5-min Rain = 0
KEA1 132106Z 34006KT 20/M05 A2989 RMK A01 T02041046  RH  018%=      5-min Rain = 0
KEA1 132107Z 34005KT 20/M05 A2989 RMK A01 T02021049  RH  018%=      5-min Rain = 0
KEA1 132108Z 32004KT 20/M05 A2989 RMK A01 T02011047  RH  018%=      5-min Rain = 0
KEA1 132109Z 30002KT 20/M05 A2989 RMK A01 T02001049  RH  018%=      5-min Rain = 0
KEA1 132110Z 31001KT 20/M05 A2989 RMK A01 T02001047  RH  018%=      5-min Rain = 0
KEA1 132111Z 04000KT 20/M05 A2989 RMK A01 T02001050  RH  018%=      5-min Rain = 0
KEA1 132112Z 33001KT 20/M05 A2989 RMK A01 T02011049  RH  018%=      5-min Rain = 0
KEA1 132113Z 00002KT 20/M05 A2989 RMK A01 T02021049  RH  018%=      5-min Rain = 0
KEA1 132114Z 34002KT 20/M05 A2989 RMK A01 T02021048  RH  018%=      5-min Rain = 0
KEA1 132115Z 35002KT 20/M05 A2989 RMK A01 T02031046  RH  018%=      5-min Rain = 0
KEA1 132116Z 29002KT 20/M05 A2989 RMK A01 T02041047  RH  018%=      5-min Rain = 0
KEA1 132117Z 30003KT 21/M05 A2989 RMK A01 T02061046  RH  018%=      5-min Rain = 0
KEA1 132118Z 32003KT 21/M05 A2989 RMK A01 T02071047  RH  018%=      5-min Rain = 0
KEA1 132119Z 31005KT 21/M05 A2989 RMK A01 T02061048  RH  018%=      5-min Rain = 0
KEA1 132120Z 31003KT 20/M05 A2989 RMK A01 T02041047  RH  018%=      5-min Rain = 0
KEA1 132121Z 28002KT 20/M05 A2989 RMK A01 T02031048  RH  018%=      5-min Rain = 0
KEA1 132122Z 34003KT 20/M05 A2989 RMK A01 T02031048  RH  018%=      5-min Rain = 0
KEA1 132123Z 36003KT 21/M05 A2989 RMK A01 T02051047  RH  018%=      5-min Rain = 0
KEA1 132124Z 36002KT 21/M05 A2989 RMK A01 T02051048  RH  018%=      5-min Rain = 0
KEA1 132125Z 01002KT 21/M05 A2989 RMK A01 T02051047  RH  018%=      5-min Rain = 0
KEA1 132126Z 03003KT 21/M05 A2989 RMK A01 T02051047  RH  018%=      5-min Rain = 0
KEA1 132127Z 03004KT 21/M05 A2989 RMK A01 T02071048  RH  018%=      5-min Rain = 0
KEA1 132128Z 03005KT 21/M05 A2989 RMK A01 T02071048  RH  018%=      5-min Rain = 0
KEA1 132129Z 03004KT 21/M05 A2989 RMK A01 T02061048  RH  018%=      5-min Rain = 0
KEA1 132130Z 02002KT 21/M05 A2989 RMK A01 T02061048  RH  018%=      5-min Rain = 0
KEA1 132131Z 06004KT 21/M05 A2989 RMK A01 T02061047  RH  018%=      5-min Rain = 0
KEA1 132132Z 07004KT 21/M05 A2989 RMK A01 T02051048  RH  018%=      5-min Rain = 0
KEA1 132133Z 09003KT 20/M05 A2989 RMK A01 T02031049  RH  018%=      5-min Rain = 0
KEA1 132134Z 07004KT 20/M05 A2989 RMK A01 T02031047  RH  018%=      5-min Rain = 0
KEA1 132135Z 09002KT 20/M05 A2989 RMK A01 T02031048  RH  018%=      5-min Rain = 0
KEA1 132136Z 09003KT 20/M05 A2989 RMK A01 T02021047  RH  018%=      5-min Rain = 0
KEA1 132137Z 05004KT 20/M05 A2989 RMK A01 T02031045  RH  018%=      5-min Rain = 0
KEA1 132138Z 04004KT 20/M05 A2989 RMK A01 T02041046  RH  018%=      5-min Rain = 0
KEA1 132139Z 04004KT 20/M05 A2989 RMK A01 T02041046  RH  018%=      5-min Rain = 0
KEA1 132140Z 03002KT 20/M05 A2989 RMK A01 T02041048  RH  018%=      5-min Rain = 0
KEA1 132141Z 36001KT 20/M05 A2989 RMK A01 T02031048  RH  018%=      5-min Rain = 0
KEA1 132142Z 03002KT 20/M05 A2989 RMK A01 T02031047  RH  018%=      5-min Rain = 0
KEA1 132143Z 03002KT 20/M05 A2989 RMK A01 T02041046  RH  018%=      5-min Rain = 0
KEA1 132144Z 03002KT 21/M05 A2989 RMK A01 T02051046  RH  018%=      5-min Rain = 0
KEA1 132145Z 03002KT 21/M05 A2989 RMK A01 T02061046  RH  018%=      5-min Rain = 0
KEA1 132146Z 17000KT 21/M05 A2989 RMK A01 T02061048  RH  018%=      5-min Rain = 0
KEA1 132147Z 04000KT 21/M05 A2989 RMK A01 T02071045  RH  018%=      5-min Rain = 0
KEA1 132148Z 05002KT 21/M05 A2989 RMK A01 T02071046  RH  018%=      5-min Rain = 0
KEA1 132149Z 03003KT 21/M05 A2989 RMK A01 T02071046  RH  018%=      5-min Rain = 0
KEA1 132150Z 03004KT 21/M04 A2989 RMK A01 T02071044  RH  018%=      5-min Rain = 0
KEA1 132151Z 05004KT 21/M05 A2989 RMK A01 T02071045  RH  018%=      5-min Rain = 0
KEA1 132152Z 06005KT 21/M05 A2989 RMK A01 T02061046  RH  018%=      5-min Rain = 0
KEA1 132153Z 06006KT 21/M05 A2989 RMK A01 T02051047  RH  018%=      5-min Rain = 0
KEA1 132154Z 05006KT 20/M05 A2989 RMK A01 T02041047  RH  018%=      5-min Rain = 0
KEA1 132155Z 04004KT 20/M05 A2989 RMK A01 T02041046  RH  018%=      5-min Rain = 0
KEA1 132156Z 05002KT 20/M05 A2989 RMK A01 T02031047  RH  018%=      5-min Rain = 0
KEA1 132157Z 04003KT 20/M05 A2989 RMK A01 T02031045  RH  018%=      5-min Rain = 0
KEA1 132158Z 07001KT 20/M04 A2989 RMK A01 T02041043  RH  018%=      5-min Rain = 0
KEA1 132159Z 06005KT 21/M04 A2989 RMK A01 T02061044  RH  018%=      5-min Rain = 0
KEA1 132200Z 06003KT 21/M05 A2989 RMK A01 T02061046  RH  018%=      5-min Rain = 0
KEA1 132201Z 09002KT 20/M05 A2989 RMK A01 T02041045  RH  018%=      5-min Rain = 0
KEA1 132202Z 12001KT 20/M05 A2989 RMK A01 T02041046  RH  018%=      5-min Rain = 0
KEA1 132203Z 09002KT 20/M04 A2989 RMK A01 T02041044  RH  018%=      5-min Rain = 0
KEA1 132204Z 09002KT 21/M05 A2989 RMK A01 T02051045  RH  018%=      5-min Rain = 0
KEA1 132205Z 07003KT 21/M05 A2989 RMK A01 T02061045  RH  018%=      5-min Rain = 0
KEA1 132206Z 06006KT 21/M05 A2989 RMK A01 T02061045  RH  018%=      5-min Rain = 0
KEA1 132207Z 06006KT 21/M05 A2989 RMK A01 T02061046  RH  018%=      5-min Rain = 0
KEA1 132208Z 05004KT 21/M05 A2989 RMK A01 T02051045  RH  018%=      5-min Rain = 0
KEA1 132209Z 04003KT 21/M04 A2989 RMK A01 T02051044  RH  018%=      5-min Rain = 0
KEA1 132210Z 03003KT 21/M04 A2989 RMK A01 T02071043  RH  018%=      5-min Rain = 0
KEA1 132211Z 03002KT 21/M04 A2989 RMK A01 T02081044  RH  018%=      5-min Rain = 0
KEA1 132212Z 04001KT 21/M04 A2989 RMK A01 T02071044  RH  018%=      5-min Rain = 0
KEA1 132213Z 04002KT 21/M04 A2989 RMK A01 T02091042  RH  018%=      5-min Rain = 0
KEA1 132214Z 06003KT 21/M04 A2989 RMK A01 T02101043  RH  018%=      5-min Rain = 0
KEA1 132215Z 08003KT 21/M04 A2989 RMK A01 T02101044  RH  018%=      5-min Rain = 0
KEA1 132216Z 08004KT 21/M05 A2989 RMK A01 T02081045  RH  018%=      5-min Rain = 0
KEA1 132217Z 07004KT 21/M04 A2989 RMK A01 T02071044  RH  018%=      5-min Rain = 0
KEA1 132218Z 08002KT 21/M05 A2989 RMK A01 T02061046  RH  018%=      5-min Rain = 0
KEA1 132219Z 09003KT 21/M05 A2989 RMK A01 T02051048  RH  018%=      5-min Rain = 0
KEA1 132220Z 08004KT 21/M05 A2989 RMK A01 T02051045  RH  018%=      5-min Rain = 0
KEA1 132221Z 09004KT 21/M04 A2989 RMK A01 T02051044  RH  018%=      5-min Rain = 0
KEA1 132222Z 09004KT 21/M04 A2989 RMK A01 T02061044  RH  018%=      5-min Rain = 0
KEA1 132223Z 09004KT 21/M04 A2989 RMK A01 T02051043  RH  018%=      5-min Rain = 0
KEA1 132224Z 09004KT 21/M05 A2989 RMK A01 T02051045  RH  018%=      5-min Rain = 0
KEA1 132225Z 08005KT 20/M05 A2989 RMK A01 T02041046  RH  018%=      5-min Rain = 0
KEA1 132226Z 10005KT 20/M04 A2989 RMK A01 T02041044  RH  018%=      5-min Rain = 0
KEA1 132227Z 08005KT 20/M05 A299 RMK A01 T02041046  RH  018%=      5-min Rain = 0
KEA1 132228Z 09005KT 20/M05 A299 RMK A01 T02031046  RH  018%=      5-min Rain = 0
KEA1 132229Z 10004KT 20/M05 A299 RMK A01 T02021046  RH  018%=      5-min Rain = 0
KEA1 132230Z 09004KT 20/M05 A299 RMK A01 T02021047  RH  018%=      5-min Rain = 0
KEA1 132231Z 09004KT 20/M05 A299 RMK A01 T02021047  RH  018%=      5-min Rain = 0
KEA1 132232Z 08005KT 20/M05 A299 RMK A01 T02021046  RH  018%=      5-min Rain = 0
KEA1 132233Z 09004KT 20/M05 A299 RMK A01 T02021047  RH  018%=      5-min Rain = 0
KEA1 132234Z 10005KT 20/M05 A299 RMK A01 T02021047  RH  018%=      5-min Rain = 0
KEA1 132235Z 10004KT 20/M05 A299 RMK A01 T02011047  RH  018%=      5-min Rain = 0
KEA1 132236Z 10004KT 20/M05 A299 RMK A01 T02011048  RH  018%=      5-min Rain = 0
KEA1 132237Z 12004KT 20/M05 A299 RMK A01 T02011047  RH  018%=      5-min Rain = 0
KEA1 132238Z 13006KT 20/M05 A299 RMK A01 T02011046  RH  019%=      5-min Rain = 0
KEA1 132239Z 10005KT 20/M05 A299 RMK A01 T02021045  RH  018%=      5-min Rain = 0
KEA1 132240Z 11005KT 20/M05 A299 RMK A01 T02031046  RH  018%=      5-min Rain = 0
KEA1 132241Z 09003KT 20/M05 A299 RMK A01 T02021047  RH  018%=      5-min Rain = 0
KEA1 132242Z 10004KT 20/M05 A299 RMK A01 T02011047  RH  018%=      5-min Rain = 0
KEA1 132243Z 11005KT 20/M05 A299 RMK A01 T02001046  RH  019%=      5-min Rain = 0
KEA1 132244Z 10005KT 20/M05 A299 RMK A01 T02001047  RH  018%=      5-min Rain = 0
KEA1 132245Z 10004KT 20/M05 A299 RMK A01 T02001047  RH  019%=      5-min Rain = 0
KEA1 132246Z 11005KT 20/M05 A299 RMK A01 T02001047  RH  018%=      5-min Rain = 0
KEA1 132247Z 11005KT 20/M05 A299 RMK A01 T01991047  RH  019%=      5-min Rain = 0
KEA1 132248Z 11005KT 20/M05 A299 RMK A01 T01991047  RH  019%=      5-min Rain = 0
KEA1 132249Z 10004KT 20/M05 A299 RMK A01 T01991046  RH  019%=      5-min Rain = 0
KEA1 132250Z 11004KT 20/M05 A299 RMK A01 T01991046  RH  019%=      5-min Rain = 0
KEA1 132251Z 12006KT 20/M05 A299 RMK A01 T01991046  RH  019%=      5-min Rain = 0
KEA1 132252Z 11005KT 20/M05 A299 RMK A01 T01991047  RH  019%=      5-min Rain = 0
KEA1 132253Z 10005KT 20/M05 A299 RMK A01 T01991047  RH  019%=      5-min Rain = 0
KEA1 132254Z 09004KT 20/M05 A299 RMK A01 T01981046  RH  019%=      5-min Rain = 0
KEA1 132255Z 09004KT 20/M05 A299 RMK A01 T01971046  RH  019%=      5-min Rain = 0
KEA1 132256Z 10004KT 20/M05 A299 RMK A01 T01961046  RH  019%=      5-min Rain = 0
KEA1 132257Z 10005KT 20/M05 A299 RMK A01 T01951046  RH  019%=      5-min Rain = 0
KEA1 132258Z 10005KT 19/M05 A299 RMK A01 T01941046  RH  019%=      5-min Rain = 0
KEA1 132259Z 10004KT 19/M05 A299 RMK A01 T01941046  RH  019%=      5-min Rain = 0
KEA1 132300Z 09004KT 19/M05 A299 RMK A01 T01931046  RH  019%=      5-min Rain = 0
KEA1 132301Z 10005KT 19/M05 A299 RMK A01 T01931045  RH  020%=      5-min Rain = 0
KEA1 132302Z 10004KT 19/M05 A299 RMK A01 T01921046  RH  020%=      5-min Rain = 0
KEA1 132303Z 09003KT 19/M05 A2991 RMK A01 T01911045  RH  020%=      5-min Rain = 0
KEA1 132304Z 09004KT 19/M05 A2991 RMK A01 T01911045  RH  020%=      5-min Rain = 0
KEA1 132305Z 10004KT 19/M05 A2991 RMK A01 T01901045  RH  020%=      5-min Rain = 0
KEA1 132306Z 10004KT 19/M05 A2991 RMK A01 T01901045  RH  020%=      5-min Rain = 0
KEA1 132307Z 10004KT 19/M05 A2991 RMK A01 T01891045  RH  020%=      5-min Rain = 0
KEA1 132308Z 10003KT 19/M05 A2991 RMK A01 T01891045  RH  020%=      5-min Rain = 0
KEA1 132309Z 10003KT 19/M05 A2991 RMK A01 T01891045  RH  020%=      5-min Rain = 0
KEA1 132310Z 10004KT 19/M05 A2991 RMK A01 T01891046  RH  020%=      5-min Rain = 0
KEA1 132311Z 09004KT 19/M05 A2991 RMK A01 T01891045  RH  020%=      5-min Rain = 0
KEA1 132312Z 07006KT 19/M05 A2991 RMK A01 T01871045  RH  020%=      5-min Rain = 0
KEA1 132313Z 06007KT 19/M04 A2991 RMK A01 T01861044  RH  021%=      5-min Rain = 0
KEA1 132314Z 06007KT 18/M04 A2991 RMK A01 T01841041  RH  021%=      5-min Rain = 0
KEA1 132315Z 06007KT 18/M04 A2991 RMK A01 T01821041  RH  022%=      5-min Rain = 0
KEA1 132316Z 06005KT 18/M04 A2991 RMK A01 T01821040  RH  022%=      5-min Rain = 0
KEA1 132317Z 07005KT 18/M04 A2991 RMK A01 T01801040  RH  022%=      5-min Rain = 0
KEA1 132318Z 07006KT 18/M04 A2991 RMK A01 T01791040  RH  022%=      5-min Rain = 0
KEA1 132319Z 07007KT 18/M04 A2991 RMK A01 T01781041  RH  022%=      5-min Rain = 0
KEA1 132320Z 07008KT 18/M04 A2991 RMK A01 T01761040  RH  023%=      5-min Rain = 0
KEA1 132321Z 07008KT 18/M04 A2992 RMK A01 T01751039  RH  023%=      5-min Rain = 0
KEA1 132322Z 07008KT 17/M04 A2992 RMK A01 T01731040  RH  023%=      5-min Rain = 0
KEA1 132323Z 07009KT 17/M04 A2992 RMK A01 T01721040  RH  023%=      5-min Rain = 0
KEA1 132324Z 07008KT 17/M04 A2992 RMK A01 T01721039  RH  023%=      5-min Rain = 0
KEA1 132325Z 07008KT 17/M04 A2992 RMK A01 T01711038  RH  024%=      5-min Rain = 0
KEA1 132326Z 07008KT 17/M04 A2992 RMK A01 T01701038  RH  024%=      5-min Rain = 0
KEA1 132327Z 07007KT 17/M04 A2992 RMK A01 T01691038  RH  024%=      5-min Rain = 0
KEA1 132328Z 07008KT 17/M04 A2992 RMK A01 T01671038  RH  024%=      5-min Rain = 0
KEA1 132329Z 06008KT 17/M04 A2992 RMK A01 T01651038  RH  025%=      5-min Rain = 0
KEA1 132330Z 07009KT 16/M04 A2992 RMK A01 T01641038  RH  025%=      5-min Rain = 0
KEA1 132331Z 07008KT 16/M04 A2992 RMK A01 T01631038  RH  025%=      5-min Rain = 0
KEA1 132332Z 07008KT 16/M04 A2992 RMK A01 T01621038  RH  025%=      5-min Rain = 0
KEA1 132333Z 08008KT 16/M04 A2992 RMK A01 T01601038  RH  025%=      5-min Rain = 0
KEA1 132334Z 07007KT 16/M04 A2993 RMK A01 T01591038  RH  025%=      5-min Rain = 0
KEA1 132335Z 06007KT 16/M04 A2993 RMK A01 T01571038  RH  026%=      5-min Rain = 0
KEA1 132336Z 06007KT 16/M04 A2993 RMK A01 T01551038  RH  026%=      5-min Rain = 0
KEA1 132337Z 07008KT 15/M04 A2993 RMK A01 T01531038  RH  026%=      5-min Rain = 0
KEA1 132338Z 07009KT 15/M04 A2993 RMK A01 T01521039  RH  027%=      5-min Rain = 0
KEA1 132339Z 07008KT 15/M04 A2993 RMK A01 T01501039  RH  027%=      5-min Rain = 0
KEA1 132340Z 06008KT 15/M04 A2993 RMK A01 T01481040  RH  027%=      5-min Rain = 0
KEA1 132341Z 06009KT 15/M04 A2993 RMK A01 T01461040  RH  027%=      5-min Rain = 0
KEA1 132342Z 06008KT 15/M04 A2993 RMK A01 T01461039  RH  027%=      5-min Rain = 0
KEA1 132343Z 06008KT 15/M04 A2993 RMK A01 T01461039  RH  028%=      5-min Rain = 0
KEA1 132344Z 06008KT 14/M04 A2993 RMK A01 T01441038  RH  028%=      5-min Rain = 0
KEA1 132345Z 06008KT 14/M04 A2993 RMK A01 T01421037  RH  029%=      5-min Rain = 0
KEA1 132346Z 05008KT 14/M04 A2993 RMK A01 T01401036  RH  029%=      5-min Rain = 0
KEA1 132347Z 05009KT 14/M04 A2994 RMK A01 T01391035  RH  030%=      5-min Rain = 0
KEA1 132348Z 05009KT 14/M03 A2994 RMK A01 T01371034  RH  030%=      5-min Rain = 0
KEA1 132349Z 06010KT 14/M03 A2994 RMK A01 T01351033  RH  031%=      5-min Rain = 0
KEA1 132350Z 05011KT 13/M03 A2994 RMK A01 T01341033  RH  031%=      5-min Rain = 0
KEA1 132351Z 05009KT 14/M03 A2994 RMK A01 T01361033  RH  031%=      5-min Rain = 0
KEA1 132352Z 05011KT 14/M03 A2994 RMK A01 T01371034  RH  030%=      5-min Rain = 0
KEA1 132353Z 04011KT 14/M03 A2994 RMK A01 T01391034  RH  030%=      5-min Rain = 0
KEA1 132354Z 04010KT 14/M04 A2994 RMK A01 T01391035  RH  030%=      5-min Rain = 0
KEA1 132355Z 04009KT 14/M04 A2994 RMK A01 T01381036  RH  030%=      5-min Rain = 0
KEA1 132356Z 04010KT 14/M04 A2994 RMK A01 T01371036  RH  030%=      5-min Rain = 0
KEA1 132357Z 04010KT 14/M04 A2994 RMK A01 T01351037  RH  030%=      5-min Rain = 0
KEA1 132358Z 03010KT 14/M04 A2994 RMK A01 T01351038  RH  030%=      5-min Rain = 0
KEA1 132359Z 03009KT 13/M04 A2994 RMK A01 T01321038  RH  030%=      5-min Rain = 0
KEA1 140000Z 04011KT 13/M04 A2994 RMK A01 T01301039  RH  031%=      5-min Rain = 0
KEA1 140001Z 04011KT 13/M04 A2995 RMK A01 T01291039  RH  031%=      5-min Rain = 0
KEA1 140002Z 04012KT 13/M04 A2995 RMK A01 T01311038  RH  031%=      5-min Rain = 0
KEA1 140003Z 04012KT 13/M04 A2995 RMK A01 T01321039  RH  030%=      5-min Rain = 0
KEA1 140004Z 04012KT 13/M04 A2995 RMK A01 T01331038  RH  030%=      5-min Rain = 0
KEA1 140005Z 03011KT 13/M04 A2995 RMK A01 T01321038  RH  031%=      5-min Rain = 0
KEA1 140006Z 04013G18KT 13/M04 A2995 RMK A01 T01291038  RH  031%=      5-min Rain = 0
KEA1 140007Z 04014KT 13/M04 A2995 RMK A01 T01301039  RH  031%=      5-min Rain = 0
KEA1 140008Z 04014KT 13/M04 A2995 RMK A01 T01331040  RH  030%=      5-min Rain = 0
KEA1 140009Z 04012KT 14/M04 A2995 RMK A01 T01361040  RH  029%=      5-min Rain = 0
KEA1 140010Z 04013KT 14/M04 A2995 RMK A01 T01371040  RH  029%=      5-min Rain = 0
KEA1 140011Z 04012KT 14/M04 A2995 RMK A01 T01361041  RH  029%=      5-min Rain = 0
KEA1 140012Z 03013KT 14/M04 A2995 RMK A01 T01351040  RH  029%=      5-min Rain = 0
KEA1 140013Z 04014KT 14/M04 A2995 RMK A01 T01351040  RH  029%=      5-min Rain = 0
KEA1 140014Z 03014KT 14/M04 A2996 RMK A01 T01371041  RH  029%=      5-min Rain = 0
KEA1 140015Z 04015KT 14/M04 A2995 RMK A01 T01381041  RH  029%=      5-min Rain = 0
KEA1 140016Z 04016KT 14/M04 A2995 RMK A01 T01391042  RH  028%=      5-min Rain = 0
KEA1 140017Z 04016KT 14/M04 A2995 RMK A01 T01391043  RH  028%=      5-min Rain = 0
KEA1 140018Z 04014KT 14/M04 A2996 RMK A01 T01391043  RH  028%=      5-min Rain = 0
KEA1 140019Z 04014KT 14/M04 A2996 RMK A01 T01381043  RH  028%=      5-min Rain = 0
KEA1 140020Z 04013KT 14/M04 A2996 RMK A01 T01371043  RH  028%=      5-min Rain = 0
KEA1 140021Z 04014KT 14/M04 A2996 RMK A01 T01361043  RH  029%=      5-min Rain = 0
KEA1 140022Z 04013KT 14/M04 A2996 RMK A01 T01351043  RH  029%=      5-min Rain = 0
KEA1 140023Z 04014KT 13/M04 A2996 RMK A01 T01341044  RH  029%=      5-min Rain = 0
KEA1 140024Z 04015KT 13/M04 A2996 RMK A01 T01341044  RH  029%=      5-min Rain = 0
KEA1 140025Z 04015KT 13/M05 A2996 RMK A01 T01331045  RH  029%=      5-min Rain = 0
KEA1 140026Z 04014KT 13/M05 A2996 RMK A01 T01331045  RH  029%=      5-min Rain = 0
KEA1 140027Z 04016KT 13/M05 A2996 RMK A01 T01331046  RH  028%=      5-min Rain = 0
KEA1 140028Z 04014KT 13/M05 A2996 RMK A01 T01331046  RH  028%=      5-min Rain = 0
KEA1 140029Z 04016KT 13/M05 A2996 RMK A01 T01321047  RH  028%=      5-min Rain = 0
KEA1 140030Z 04015KT 13/M05 A2996 RMK A01 T01321048  RH  028%=      5-min Rain = 0
KEA1 140031Z 04015KT 13/M05 A2996 RMK A01 T01321049  RH  028%=      5-min Rain = 0
KEA1 140032Z 04016KT 13/M05 A2996 RMK A01 T01321049  RH  028%=      5-min Rain = 0
KEA1 140033Z 04015KT 13/M05 A2997 RMK A01 T01321050  RH  028%=      5-min Rain = 0
KEA1 140034Z 04015KT 13/M05 A2997 RMK A01 T01321050  RH  028%=      5-min Rain = 0
KEA1 140035Z 04014KT 13/M05 A2997 RMK A01 T01311050  RH  028%=      5-min Rain = 0
KEA1 140036Z 04015KT 13/M05 A2997 RMK A01 T01301051  RH  028%=      5-min Rain = 0
KEA1 140037Z 04015KT 13/M05 A2997 RMK A01 T01301051  RH  028%=      5-min Rain = 0
KEA1 140038Z 04016KT 13/M05 A2997 RMK A01 T01291052  RH  028%=      5-min Rain = 0
KEA1 140039Z 04015KT 13/M05 A2997 RMK A01 T01281052  RH  028%=      5-min Rain = 0
KEA1 140040Z 04015KT 13/M05 A2997 RMK A01 T01291052  RH  028%=      5-min Rain = 0
KEA1 140041Z 04016G21KT 13/M05 A2997 RMK A01 T01281053  RH  028%=      5-min Rain = 0
KEA1 140042Z 04018KT 13/M05 A2997 RMK A01 T01281053  RH  028%=      5-min Rain = 0
KEA1 140043Z 04016KT 13/M05 A2997 RMK A01 T01281054  RH  028%=      5-min Rain = 0
KEA1 140044Z 04016KT 13/M05 A2997 RMK A01 T01281054  RH  028%=      5-min Rain = 0
KEA1 140045Z 04017KT 13/M05 A2997 RMK A01 T01271054  RH  028%=      5-min Rain = 0
KEA1 140046Z 04015KT 13/M06 A2997 RMK A01 T01271055  RH  028%=      5-min Rain = 0
KEA1 140047Z 04015KT 13/M06 A2997 RMK A01 T01261055  RH  028%=      5-min Rain = 0
KEA1 140048Z 04014KT 13/M06 A2997 RMK A01 T01251055  RH  028%=      5-min Rain = 0
KEA1 140049Z 04014KT 13/M06 A2998 RMK A01 T01251055  RH  028%=      5-min Rain = 0
KEA1 140050Z 04015KT 12/M06 A2998 RMK A01 T01241055  RH  028%=      5-min Rain = 0
KEA1 140051Z 04014KT 12/M06 A2998 RMK A01 T01241056  RH  028%=      5-min Rain = 0
KEA1 140052Z 04015KT 12/M06 A2998 RMK A01 T01241056  RH  028%=      5-min Rain = 0
KEA1 140053Z 04015KT 12/M06 A2998 RMK A01 T01241056  RH  028%=      5-min Rain = 0
KEA1 140054Z 04014KT 12/M06 A2998 RMK A01 T01231057  RH  028%=      5-min Rain = 0
KEA1 140055Z 04014KT 12/M06 A2998 RMK A01 T01231058  RH  028%=      5-min Rain = 0
KEA1 140056Z 04014KT 12/M06 A2998 RMK A01 T01221059  RH  028%=      5-min Rain = 0
KEA1 140057Z 04015KT 12/M06 A2998 RMK A01 T01231059  RH  028%=      5-min Rain = 0
KEA1 140058Z 04014KT 12/M06 A2998 RMK A01 T01221059  RH  028%=      5-min Rain = 0
KEA1 140059Z 04014KT 12/M06 A2998 RMK A01 T01221060  RH  028%=      5-min Rain = 0
KEA1 140100Z 04013KT 12/M06 A2998 RMK A01 T01221061  RH  028%=      5-min Rain = 0
KEA1 140101Z 04013KT 12/M06 A2998 RMK A01 T01211061  RH  028%=      5-min Rain = 0
KEA1 140102Z 04012KT 12/M06 A2998 RMK A01 T01211061  RH  028%=      5-min Rain = 0
KEA1 140103Z 04014KT 12/M06 A2998 RMK A01 T01201061  RH  028%=      5-min Rain = 0
KEA1 140104Z 05014KT 12/M06 A2998 RMK A01 T01201062  RH  028%=      5-min Rain = 0
KEA1 140105Z 05012KT 12/M06 A2999 RMK A01 T01191062  RH  028%=      5-min Rain = 0
KEA1 140106Z 05012KT 12/M06 A2999 RMK A01 T01191063  RH  028%=      5-min Rain = 0
KEA1 140107Z 04013KT 12/M06 A2999 RMK A01 T01191063  RH  027%=      5-min Rain = 0
KEA1 140108Z 05013KT 12/M06 A2999 RMK A01 T01181063  RH  028%=      5-min Rain = 0
KEA1 140109Z 05013KT 12/M06 A2999 RMK A01 T01181063  RH  027%=      5-min Rain = 0
KEA1 140110Z 05013KT 12/M06 A2999 RMK A01 T01181064  RH  027%=      5-min Rain = 0
KEA1 140111Z 04012KT 12/M06 A2999 RMK A01 T01181064  RH  027%=      5-min Rain = 0
KEA1 140112Z 04013KT 12/M06 A2999 RMK A01 T01181064  RH  027%=      5-min Rain = 0
KEA1 140113Z 05013KT 12/M06 A2999 RMK A01 T01181064  RH  027%=      5-min Rain = 0
KEA1 140114Z 05013KT 12/M07 A2999 RMK A01 T01181065  RH  027%=      5-min Rain = 0
KEA1 140115Z 05012KT 12/M07 A2999 RMK A01 T01171065  RH  027%=      5-min Rain = 0
KEA1 140116Z 05012KT 12/M07 A2999 RMK A01 T01171065  RH  027%=      5-min Rain = 0
KEA1 140117Z 05012KT 12/M07 A2999 RMK A01 T01171065  RH  027%=      5-min Rain = 0
KEA1 140118Z 05012KT 12/M07 A2999 RMK A01 T01151066  RH  027%=      5-min Rain = 0
KEA1 140119Z 05012KT 12/M07 A2999 RMK A01 T01151066  RH  028%=      5-min Rain = 0
KEA1 140120Z 05012KT 12/M07 A2999 RMK A01 T01151066  RH  028%=      5-min Rain = 0
KEA1 140121Z 05013KT 12/M07 A2999 RMK A01 T01151067  RH  027%=      5-min Rain = 0
KEA1 140122Z 05012KT 11/M07 A2999 RMK A01 T01141068  RH  027%=      5-min Rain = 0
KEA1 140123Z 05012KT 11/M07 A2999 RMK A01 T01141068  RH  027%=      5-min Rain = 0
KEA1 140124Z 05012KT 11/M07 A2999 RMK A01 T01141069  RH  027%=      5-min Rain = 0
KEA1 140125Z 04013KT 11/M07 A30 RMK A01 T01141069  RH  027%=      5-min Rain = 0
KEA1 140126Z 04012KT 11/M07 A30 RMK A01 T01131070  RH  027%=      5-min Rain = 0
KEA1 140127Z 05011KT 11/M07 A30 RMK A01 T01131070  RH  027%=      5-min Rain = 0
KEA1 140128Z 04011KT 11/M07 A30 RMK A01 T01121070  RH  027%=      5-min Rain = 0
KEA1 140129Z 04011KT 11/M07 A30 RMK A01 T01121070  RH  027%=      5-min Rain = 0
KEA1 140130Z 05011KT 11/M07 A30 RMK A01 T01111070  RH  027%=      5-min Rain = 0
KEA1 140131Z 05011KT 11/M07 A30 RMK A01 T01111070  RH  028%=      5-min Rain = 0
KEA1 140132Z 04011KT 11/M07 A30 RMK A01 T01101070  RH  028%=      5-min Rain = 0
KEA1 140133Z 04010KT 11/M07 A30 RMK A01 T01081070  RH  028%=      5-min Rain = 0
KEA1 140134Z 04010KT 11/M07 A30 RMK A01 T01061069  RH  028%=      5-min Rain = 0
KEA1 140135Z 04010KT 11/M07 A30 RMK A01 T01061069  RH  029%=      5-min Rain = 0
KEA1 140136Z 04010KT 11/M07 A30 RMK A01 T01051069  RH  029%=      5-min Rain = 0
KEA1 140137Z 04010KT 10/M07 A30 RMK A01 T01031069  RH  029%=      5-min Rain = 0
KEA1 140138Z 04010KT 10/M07 A30 RMK A01 T01011069  RH  029%=      5-min Rain = 0
KEA1 140139Z 04010KT 10/M07 A30 RMK A01 T01001069  RH  030%=      5-min Rain = 0
KEA1 140140Z 04010KT 10/M07 A30 RMK A01 T00991069  RH  030%=      5-min Rain = 0
KEA1 140141Z 04009KT 10/M07 A30 RMK A01 T00991068  RH  030%=      5-min Rain = 0
KEA1 140142Z 04009KT 10/M07 A30 RMK A01 T00991068  RH  030%=      5-min Rain = 0
KEA1 140143Z 03009KT 10/M07 A30 RMK A01 T00961068  RH  031%=      5-min Rain = 0
KEA1 140144Z 03009KT 10/M07 A30 RMK A01 T00951068  RH  031%=      5-min Rain = 0
KEA1 140145Z 03009KT 09/M07 A30 RMK A01 T00931068  RH  031%=      5-min Rain = 0
KEA1 140146Z 03009KT 09/M07 A30 RMK A01 T00911068  RH  032%=      5-min Rain = 0
KEA1 140147Z 03009KT 09/M07 A3001 RMK A01 T00881069  RH  032%=      5-min Rain = 0
KEA1 140148Z 03009KT 09/M07 A3001 RMK A01 T00871068  RH  033%=      5-min Rain = 0
KEA1 140149Z 03010KT 09/M07 A3001 RMK A01 T00851068  RH  033%=      5-min Rain = 0
KEA1 140150Z 03010KT 09/M07 A3001 RMK A01 T00851068  RH  033%=      5-min Rain = 0
KEA1 140151Z 03010KT 09/M07 A3001 RMK A01 T00851067  RH  033%=      5-min Rain = 0
KEA1 140152Z 03010KT 08/M07 A3001 RMK A01 T00841067  RH  034%=      5-min Rain = 0
KEA1 140153Z 03010KT 08/M07 A3001 RMK A01 T00841067  RH  034%=      5-min Rain = 0
KEA1 140154Z 02009KT 08/M07 A3001 RMK A01 T00831067  RH  034%=      5-min Rain = 0
KEA1 140155Z 02010KT 08/M07 A3001 RMK A01 T00821066  RH  034%=      5-min Rain = 0
KEA1 140156Z 02010KT 08/M07 A3001 RMK A01 T00801066  RH  035%=      5-min Rain = 0
KEA1 140157Z 02010KT 08/M07 A3001 RMK A01 T00791066  RH  035%=      5-min Rain = 0
KEA1 140158Z 02010KT 08/M07 A3002 RMK A01 T00781065  RH  035%=      5-min Rain = 0
KEA1 140159Z 02010KT 08/M07 A3002 RMK A01 T00771065  RH  036%=      5-min Rain = 0
KEA1 140200Z 02010KT 08/M06 A3002 RMK A01 T00771064  RH  036%=      5-min Rain = 0
KEA1 140201Z 02010KT 08/M06 A3002 RMK A01 T00761064  RH  036%=      5-min Rain = 0
KEA1 140202Z 02010KT 08/M06 A3002 RMK A01 T00751064  RH  037%=      5-min Rain = 0
KEA1 140203Z 02010KT 07/M06 A3002 RMK A01 T00741064  RH  037%=      5-min Rain = 0
KEA1 140204Z 02009KT 07/M06 A3002 RMK A01 T00741063  RH  037%=      5-min Rain = 0
KEA1 140205Z 02009KT 07/M06 A3002 RMK A01 T00731063  RH  037%=      5-min Rain = 0
KEA1 140206Z 02009KT 07/M06 A3002 RMK A01 T00721064  RH  037%=      5-min Rain = 0
KEA1 140207Z 03009KT 07/M06 A3002 RMK A01 T00721063  RH  038%=      5-min Rain = 0
KEA1 140208Z 03008KT 07/M06 A3002 RMK A01 T00701063  RH  038%=      5-min Rain = 0
KEA1 140209Z 03008KT 07/M06 A3002 RMK A01 T00691063  RH  038%=      5-min Rain = 0
KEA1 140210Z 03008KT 07/M06 A3002 RMK A01 T00681063  RH  039%=      5-min Rain = 0
KEA1 140211Z 03009KT 07/M06 A3002 RMK A01 T00681063  RH  039%=      5-min Rain = 0
KEA1 140212Z 02009KT 07/M06 A3002 RMK A01 T00681063  RH  039%=      5-min Rain = 0
KEA1 140213Z 02009KT 07/M06 A3002 RMK A01 T00671063  RH  039%=      5-min Rain = 0
KEA1 140214Z 02009KT 07/M06 A3002 RMK A01 T00661063  RH  039%=      5-min Rain = 0
KEA1 140215Z 03009KT 07/M06 A3002 RMK A01 T00651063  RH  039%=      5-min Rain = 0
KEA1 140216Z 03009KT 07/M06 A3002 RMK A01 T00651063  RH  039%=      5-min Rain = 0
KEA1 140217Z 03009KT 07/M06 A3002 RMK A01 T00651063  RH  039%=      5-min Rain = 0
KEA1 140218Z 03009KT 06/M06 A3002 RMK A01 T00641064  RH  039%=      5-min Rain = 0
KEA1 140219Z 03009KT 06/M06 A3002 RMK A01 T00631064  RH  040%=      5-min Rain = 0
KEA1 140220Z 03009KT 06/M06 A3003 RMK A01 T00621064  RH  040%=      5-min Rain = 0
KEA1 140221Z 02009KT 06/M06 A3003 RMK A01 T00621064  RH  040%=      5-min Rain = 0
KEA1 140222Z 02009KT 06/M06 A3003 RMK A01 T00611064  RH  040%=      5-min Rain = 0
KEA1 140223Z 02009KT 06/M07 A3003 RMK A01 T00601065  RH  040%=      5-min Rain = 0
KEA1 140224Z 02009KT 06/M07 A3003 RMK A01 T00591065  RH  041%=      5-min Rain = 0
KEA1 140225Z 02009KT 06/M07 A3003 RMK A01 T00581065  RH  041%=      5-min Rain = 0
KEA1 140226Z 02009KT 06/M07 A3003 RMK A01 T00581065  RH  041%=      5-min Rain = 0
KEA1 140227Z 03009KT 06/M07 A3003 RMK A01 T00571065  RH  041%=      5-min Rain = 0
KEA1 140228Z 03008KT 06/M07 A3003 RMK A01 T00571065  RH  041%=      5-min Rain = 0
KEA1 140229Z 02008KT 06/M07 A3003 RMK A01 T00571065  RH  041%=      5-min Rain = 0
KEA1 140230Z 02008KT 06/M07 A3003 RMK A01 T00571065  RH  041%=      5-min Rain = 0
KEA1 140231Z 02009KT 06/M07 A3003 RMK A01 T00571065  RH  041%=      5-min Rain = 0
KEA1 140232Z 02009KT 06/M06 A3003 RMK A01 T00561064  RH  041%=      5-min Rain = 0
KEA1 140233Z 02009KT 06/M07 A3003 RMK A01 T00561065  RH  042%=      5-min Rain = 0
KEA1 140234Z 02009KT 06/M07 A3003 RMK A01 T00551065  RH  042%=      5-min Rain = 0
KEA1 140235Z 02009KT 05/M07 A3003 RMK A01 T00541065  RH  042%=      5-min Rain = 0
KEA1 140236Z 02009KT 05/M07 A3003 RMK A01 T00541065  RH  042%=      5-min Rain = 0
KEA1 140237Z 02008KT 05/M07 A3003 RMK A01 T00541065  RH  042%=      5-min Rain = 0
KEA1 140238Z 02008KT 05/M07 A3003 RMK A01 T00531065  RH  042%=      5-min Rain = 0
KEA1 140239Z 02008KT 05/M07 A3003 RMK A01 T00531065  RH  042%=      5-min Rain = 0
KEA1 140240Z 02008KT 05/M07 A3003 RMK A01 T00521065  RH  042%=      5-min Rain = 0
KEA1 140241Z 02008KT 05/M07 A3003 RMK A01 T00521065  RH  042%=      5-min Rain = 0
KEA1 140242Z 02008KT 05/M07 A3004 RMK A01 T00521065  RH  042%=      5-min Rain = 0
KEA1 140243Z 02007KT 05/M07 A3004 RMK A01 T00531065  RH  042%=      5-min Rain = 0
KEA1 140244Z 01007KT 05/M07 A3004 RMK A01 T00531065  RH  042%=      5-min Rain = 0
KEA1 140245Z 01007KT 05/M07 A3004 RMK A01 T00531065  RH  042%=      5-min Rain = 0
KEA1 140246Z 01007KT 05/M07 A3004 RMK A01 T00531065  RH  042%=      5-min Rain = 0
KEA1 140247Z 01008KT 05/M07 A3004 RMK A01 T00531065  RH  042%=      5-min Rain = 0
KEA1 140248Z 02007KT 05/M07 A3004 RMK A01 T00531065  RH  042%=      5-min Rain = 0
KEA1 140249Z 02007KT 05/M07 A3004 RMK A01 T00531065  RH  042%=      5-min Rain = 0
KEA1 140250Z 02007KT 05/M07 A3004 RMK A01 T00531065  RH  042%=      5-min Rain = 0
KEA1 140251Z 02008KT 05/M07 A3004 RMK A01 T00521066  RH  042%=      5-min Rain = 0
KEA1 140252Z 02008KT 05/M07 A3004 RMK A01 T00521066  RH  042%=      5-min Rain = 0
KEA1 140253Z 02008KT 05/M07 A3004 RMK A01 T00511066  RH  042%=      5-min Rain = 0
KEA1 140254Z 01008KT 05/M07 A3004 RMK A01 T00511066  RH  043%=      5-min Rain = 0
KEA1 140255Z 01008KT 05/M07 A3004 RMK A01 T00501066  RH  043%=      5-min Rain = 0
KEA1 140256Z 01008KT 05/M07 A3004 RMK A01 T00491067  RH  043%=      5-min Rain = 0
KEA1 140257Z 01008KT 05/M07 A3004 RMK A01 T00481067  RH  043%=      5-min Rain = 0
KEA1 140258Z 02008KT 05/M07 A3004 RMK A01 T00471067  RH  044%=      5-min Rain = 0
KEA1 140259Z 01008KT 05/M07 A3004 RMK A01 T00461067  RH  044%=      5-min Rain = 0
KEA1 140300Z 02008KT 05/M07 A3004 RMK A01 T00451067  RH  044%=      5-min Rain = 0
KEA1 140301Z 01008KT 04/M07 A3005 RMK A01 T00441067  RH  044%=      5-min Rain = 0
KEA1 140302Z 02008KT 04/M07 A3005 RMK A01 T00431067  RH  045%=      5-min Rain = 0
KEA1 140303Z 02008KT 04/M07 A3005 RMK A01 T00421066  RH  045%=      5-min Rain = 0
KEA1 140304Z 02008KT 04/M07 A3005 RMK A01 T00421066  RH  045%=      5-min Rain = 0
KEA1 140305Z 02008KT 04/M07 A3005 RMK A01 T00411066  RH  045%=      5-min Rain = 0
KEA1 140306Z 02009KT 04/M07 A3005 RMK A01 T00411066  RH  046%=      5-min Rain = 0
KEA1 140307Z 02009KT 04/M07 A3005 RMK A01 T00411066  RH  046%=      5-min Rain = 0
KEA1 140308Z 02009KT 04/M07 A3005 RMK A01 T00411066  RH  046%=      5-min Rain = 0
KEA1 140309Z 02009KT 04/M07 A3005 RMK A01 T00401065  RH  046%=      5-min Rain = 0
KEA1 140310Z 02009KT 04/M07 A3005 RMK A01 T00391065  RH  046%=      5-min Rain = 0
KEA1 140311Z 02009KT 04/M07 A3005 RMK A01 T00391065  RH  047%=      5-min Rain = 0
KEA1 140312Z 01009KT 04/M07 A3005 RMK A01 T00381065  RH  047%=      5-min Rain = 0
KEA1 140313Z 01008KT 04/M07 A3005 RMK A01 T00381065  RH  047%=      5-min Rain = 0
KEA1 140314Z 01009KT 04/M07 A3005 RMK A01 T00381065  RH  047%=      5-min Rain = 0
KEA1 140315Z 01008KT 04/M07 A3005 RMK A01 T00371065  RH  047%=      5-min Rain = 0
KEA1 140316Z 01008KT 04/M07 A3005 RMK A01 T00361065  RH  048%=      5-min Rain = 0
KEA1 140317Z 01009KT 04/M06 A3005 RMK A01 T00361064  RH  048%=      5-min Rain = 0
KEA1 140318Z 01009KT 04/M06 A3006 RMK A01 T00361064  RH  048%=      5-min Rain = 0
KEA1 140319Z 01009KT 04/M06 A3006 RMK A01 T00361064  RH  048%=      5-min Rain = 0
KEA1 140320Z 02009KT 04/M07 A3006 RMK A01 T00351065  RH  048%=      5-min Rain = 0
KEA1 140321Z 02009KT 04/M06 A3006 RMK A01 T00361064  RH  048%=      5-min Rain = 0
KEA1 140322Z 02009KT 04/M07 A3006 RMK A01 T00351065  RH  048%=      5-min Rain = 0
KEA1 140323Z 02009KT 04/M07 A3006 RMK A01 T00351065  RH  048%=      5-min Rain = 0
KEA1 140324Z 02009KT 04/M06 A3006 RMK A01 T00351064  RH  048%=      5-min Rain = 0
KEA1 140325Z 02009KT 04/M06 A3006 RMK A01 T00351063  RH  049%=      5-min Rain = 0
KEA1 140326Z 02009KT 04/M06 A3006 RMK A01 T00351063  RH  049%=      5-min Rain = 0
KEA1 140327Z 02009KT 04/M06 A3006 RMK A01 T00371063  RH  048%=      5-min Rain = 0
KEA1 140328Z 02009KT 04/M06 A3006 RMK A01 T00371062  RH  048%=      5-min Rain = 0
KEA1 140329Z 02009KT 04/M06 A3006 RMK A01 T00381062  RH  048%=      5-min Rain = 0
KEA1 140330Z 02009KT 04/M06 A3006 RMK A01 T00381062  RH  048%=      5-min Rain = 0
KEA1 140331Z 02009KT 04/M06 A3007 RMK A01 T00381062  RH  048%=      5-min Rain = 0
KEA1 140332Z 02009KT 04/M06 A3007 RMK A01 T00381063  RH  048%=      5-min Rain = 0
KEA1 140333Z 02009KT 04/M06 A3007 RMK A01 T00381063  RH  048%=      5-min Rain = 0
KEA1 140334Z 02010KT 04/M06 A3007 RMK A01 T00381063  RH  048%=      5-min Rain = 0
KEA1 140335Z 02010KT 04/M06 A3007 RMK A01 T00381063  RH  048%=      5-min Rain = 0
KEA1 140336Z 02010KT 04/M06 A3007 RMK A01 T00381063  RH  048%=      5-min Rain = 0
KEA1 140337Z 02010KT 04/M06 A3007 RMK A01 T00381063  RH  048%=      5-min Rain = 0
KEA1 140338Z 02010KT 04/M06 A3007 RMK A01 T00381063  RH  048%=      5-min Rain = 0
KEA1 140339Z 02010KT 04/M06 A3007 RMK A01 T00391063  RH  048%=      5-min Rain = 0
KEA1 140340Z 02010KT 04/M06 A3007 RMK A01 T00391062  RH  048%=      5-min Rain = 0
KEA1 140341Z 01010KT 04/M06 A3007 RMK A01 T00391062  RH  048%=      5-min Rain = 0
KEA1 140342Z 01010KT 04/M06 A3007 RMK A01 T00401062  RH  048%=      5-min Rain = 0
KEA1 140343Z 01010KT 04/M06 A3008 RMK A01 T00401062  RH  048%=      5-min Rain = 0
KEA1 140344Z 02010KT 04/M06 A3008 RMK A01 T00401062  RH  048%=      5-min Rain = 0
KEA1 140345Z 02010KT 04/M06 A3008 RMK A01 T00401062  RH  048%=      5-min Rain = 0
KEA1 140346Z 01009KT 04/M06 A3008 RMK A01 T00391062  RH  048%=      5-min Rain = 0
KEA1 140347Z 01009KT 04/M06 A3008 RMK A01 T00401061  RH  048%=      5-min Rain = 0
KEA1 140348Z 01009KT 04/M06 A3008 RMK A01 T00391062  RH  048%=      5-min Rain = 0
KEA1 140349Z 01009KT 04/M06 A3008 RMK A01 T00381062  RH  048%=      5-min Rain = 0
KEA1 140350Z 02009KT 04/M06 A3008 RMK A01 T00381062  RH  048%=      5-min Rain = 0
KEA1 140351Z 02009KT 04/M06 A3008 RMK A01 T00381062  RH  048%=      5-min Rain = 0
KEA1 140352Z 01009KT 04/M06 A3008 RMK A01 T00381062  RH  048%=      5-min Rain = 0
KEA1 140353Z 02009KT 04/M06 A3008 RMK A01 T00371061  RH  048%=      5-min Rain = 0
KEA1 140354Z 02010KT 04/M06 A3008 RMK A01 T00371062  RH  049%=      5-min Rain = 0
KEA1 140355Z 02009KT 04/M06 A3008 RMK A01 T00361062  RH  049%=      5-min Rain = 0
KEA1 140356Z 02010KT 04/M06 A3008 RMK A01 T00361062  RH  049%=      5-min Rain = 0
KEA1 140357Z 02010KT 04/M06 A3008 RMK A01 T00361062  RH  049%=      5-min Rain = 0
KEA1 140358Z 02010KT 04/M06 A3008 RMK A01 T00361061  RH  049%=      5-min Rain = 0
KEA1 140359Z 02010KT 04/M06 A3008 RMK A01 T00361061  RH  049%=      5-min Rain = 0
KEA1 140400Z 02010KT 04/M06 A3009 RMK A01 T00361061  RH  049%=      5-min Rain = 0
KEA1 140401Z 02010KT 04/M06 A3009 RMK A01 T00361061  RH  049%=      5-min Rain = 0
KEA1 140402Z 02010KT 04/M06 A3009 RMK A01 T00361061  RH  049%=      5-min Rain = 0
KEA1 140403Z 02010KT 04/M06 A3009 RMK A01 T00361061  RH  049%=      5-min Rain = 0
KEA1 140404Z 02010KT 04/M06 A3009 RMK A01 T00361060  RH  049%=      5-min Rain = 0
KEA1 140405Z 02010KT 04/M06 A3009 RMK A01 T00361060  RH  049%=      5-min Rain = 0
KEA1 140406Z 02010KT 04/M06 A3009 RMK A01 T00361060  RH  049%=      5-min Rain = 0
KEA1 140407Z 02010KT 04/M06 A3009 RMK A01 T00361060  RH  049%=      5-min Rain = 0
KEA1 140408Z 02009KT 04/M06 A3009 RMK A01 T00361060  RH  049%=      5-min Rain = 0
KEA1 140409Z 02009KT 04/M06 A3009 RMK A01 T00361059  RH  050%=      5-min Rain = 0
KEA1 140410Z 02009KT 04/M06 A3009 RMK A01 T00361060  RH  050%=      5-min Rain = 0
KEA1 140411Z 02010KT 04/M06 A3009 RMK A01 T00351060  RH  050%=      5-min Rain = 0
KEA1 140412Z 02009KT 04/M06 A3009 RMK A01 T00351060  RH  050%=      5-min Rain = 0
KEA1 140413Z 02009KT 04/M06 A3009 RMK A01 T00351060  RH  050%=      5-min Rain = 0
KEA1 140414Z 02009KT 03/M06 A3009 RMK A01 T00341060  RH  050%=      5-min Rain = 0
KEA1 140415Z 02010KT 03/M06 A3009 RMK A01 T00341060  RH  050%=      5-min Rain = 0
KEA1 140416Z 02009KT 03/M06 A3009 RMK A01 T00341060  RH  050%=      5-min Rain = 0
KEA1 140417Z 02009KT 03/M06 A3009 RMK A01 T00341059  RH  051%=      5-min Rain = 0
KEA1 140418Z 02009KT 03/M06 A3009 RMK A01 T00341059  RH  051%=      5-min Rain = 0
KEA1 140419Z 02009KT 03/M06 A3009 RMK A01 T00331059  RH  051%=      5-min Rain = 0
KEA1 140420Z 02009KT 03/M06 A3009 RMK A01 T00331059  RH  051%=      5-min Rain = 0
KEA1 140421Z 02009KT 03/M06 A3009 RMK A01 T00331059  RH  051%=      5-min Rain = 0
KEA1 140422Z 02008KT 03/M06 A3009 RMK A01 T00331059  RH  051%=      5-min Rain = 0
KEA1 140423Z 02008KT 03/M06 A3009 RMK A01 T00321059  RH  051%=      5-min Rain = 0
KEA1 140424Z 02008KT 03/M06 A3009 RMK A01 T00311060  RH  051%=      5-min Rain = 0
KEA1 140425Z 02008KT 03/M06 A3009 RMK A01 T00311059  RH  051%=      5-min Rain = 0
KEA1 140426Z 02008KT 03/M06 A3009 RMK A01 T00311059  RH  052%=      5-min Rain = 0
KEA1 140427Z 02008KT 03/M06 A301 RMK A01 T00301060  RH  052%=      5-min Rain = 0
KEA1 140428Z 01008KT 03/M06 A3009 RMK A01 T00301059  RH  052%=      5-min Rain = 0
KEA1 140429Z 01008KT 03/M06 A3009 RMK A01 T00301059  RH  052%=      5-min Rain = 0
KEA1 140430Z 01008KT 03/M06 A3009 RMK A01 T00291059  RH  052%=      5-min Rain = 0
KEA1 140431Z 01008KT 03/M06 A3009 RMK A01 T00301059  RH  052%=      5-min Rain = 0
KEA1 140432Z 02008KT 03/M06 A3009 RMK A01 T00301059  RH  052%=      5-min Rain = 0
KEA1 140433Z 02009KT 03/M06 A3009 RMK A01 T00301059  RH  052%=      5-min Rain = 0
KEA1 140434Z 02009KT 03/M06 A301 RMK A01 T00301058  RH  052%=      5-min Rain = 0
KEA1 140435Z 02009KT 03/M06 A301 RMK A01 T00301058  RH  052%=      5-min Rain = 0
KEA1 140436Z 02009KT 03/M06 A301 RMK A01 T00301057  RH  053%=      5-min Rain = 0
KEA1 140437Z 02009KT 03/M06 A301 RMK A01 T00311057  RH  052%=      5-min Rain = 0
KEA1 140438Z 02009KT 03/M06 A301 RMK A01 T00311058  RH  052%=      5-min Rain = 0
KEA1 140439Z 01009KT 03/M06 A301 RMK A01 T00311058  RH  052%=      5-min Rain = 0
KEA1 140440Z 01008KT 03/M06 A301 RMK A01 T00311057  RH  052%=      5-min Rain = 0
KEA1 140441Z 02008KT 03/M06 A301 RMK A01 T00311057  RH  052%=      5-min Rain = 0
KEA1 140442Z 02008KT 03/M06 A301 RMK A01 T00311057  RH  052%=      5-min Rain = 0
KEA1 140443Z 02008KT 03/M06 A301 RMK A01 T00311057  RH  053%=      5-min Rain = 0
KEA1 140444Z 02008KT 03/M06 A301 RMK A01 T00311057  RH  053%=      5-min Rain = 0
KEA1 140445Z 02007KT 03/M06 A301 RMK A01 T00301057  RH  053%=      5-min Rain = 0
KEA1 140446Z 02008KT 03/M06 A301 RMK A01 T00301056  RH  053%=      5-min Rain = 0
KEA1 140447Z 02008KT 03/M06 A301 RMK A01 T00301057  RH  053%=      5-min Rain = 0
KEA1 140448Z 02008KT 03/M06 A301 RMK A01 T00301056  RH  053%=      5-min Rain = 0
KEA1 140449Z 02008KT 03/M06 A3011 RMK A01 T00301056  RH  053%=      5-min Rain = 0
KEA1 140450Z 02009KT 03/M06 A3011 RMK A01 T00301056  RH  053%=      5-min Rain = 0
KEA1 140451Z 02009KT 03/M06 A3011 RMK A01 T00301056  RH  053%=      5-min Rain = 0
KEA1 140452Z 02008KT 03/M06 A3011 RMK A01 T00291056  RH  054%=      5-min Rain = 0
KEA1 140453Z 02009KT 03/M06 A3011 RMK A01 T00301055  RH  054%=      5-min Rain = 0
KEA1 140454Z 02008KT 03/M06 A3011 RMK A01 T00301055  RH  054%=      5-min Rain = 0
KEA1 140455Z 02009KT 03/M05 A3011 RMK A01 T00311054  RH  054%=      5-min Rain = 0
KEA1 140456Z 02008KT 03/M06 A3011 RMK A01 T00311055  RH  053%=      5-min Rain = 0
KEA1 140457Z 02008KT 03/M05 A3011 RMK A01 T00311054  RH  053%=      5-min Rain = 0
KEA1 140458Z 02008KT 03/M05 A3011 RMK A01 T00311054  RH  054%=      5-min Rain = 0
KEA1 140459Z 02009KT 03/M05 A3011 RMK A01 T00311054  RH  054%=      5-min Rain = 0
KEA1 140500Z 02009KT 03/M05 A3011 RMK A01 T00311054  RH  054%=      5-min Rain = 0
KEA1 140501Z 02009KT 03/M05 A3011 RMK A01 T00321053  RH  054%=      5-min Rain = 0
KEA1 140502Z 02009KT 03/M05 A3011 RMK A01 T00311053  RH  054%=      5-min Rain = 0
KEA1 140503Z 02009KT 03/M05 A3011 RMK A01 T00311053  RH  054%=      5-min Rain = 0
KEA1 140504Z 02010KT 03/M05 A3011 RMK A01 T00311052  RH  054%=      5-min Rain = 0
KEA1 140505Z 02010KT 03/M05 A3011 RMK A01 T00311052  RH  054%=      5-min Rain = 0
KEA1 140506Z 02010KT 03/M05 A3011 RMK A01 T00311052  RH  054%=      5-min Rain = 0
KEA1 140507Z 02010KT 03/M05 A3011 RMK A01 T00311052  RH  055%=      5-min Rain = 0
KEA1 140508Z 02009KT 03/M05 A3011 RMK A01 T00311052  RH  055%=      5-min Rain = 0
KEA1 140509Z 02009KT 03/M05 A3011 RMK A01 T00311051  RH  055%=      5-min Rain = 0
KEA1 140510Z 02009KT 03/M05 A3011 RMK A01 T00321051  RH  055%=      5-min Rain = 0
KEA1 140511Z 01009KT 03/M05 A3011 RMK A01 T00321051  RH  054%=      5-min Rain = 0
KEA1 140512Z 01009KT 03/M05 A3011 RMK A01 T00321051  RH  054%=      5-min Rain = 0
KEA1 140513Z 01009KT 03/M05 A3011 RMK A01 T00321052  RH  054%=      5-min Rain = 0
KEA1 140514Z 01009KT 03/M05 A3011 RMK A01 T00321051  RH  054%=      5-min Rain = 0
KEA1 140515Z 01009KT 03/M05 A3012 RMK A01 T00321052  RH  054%=      5-min Rain = 0
KEA1 140516Z 01009KT 03/M05 A3012 RMK A01 T00311053  RH  054%=      5-min Rain = 0
KEA1 140517Z 01009KT 03/M05 A3012 RMK A01 T00301053  RH  055%=      5-min Rain = 0
KEA1 140518Z 01009KT 03/M05 A3012 RMK A01 T00291053  RH  055%=      5-min Rain = 0
KEA1 140519Z 01008KT 03/M05 A3012 RMK A01 T00291053  RH  055%=      5-min Rain = 0
KEA1 140520Z 01008KT 03/M05 A3012 RMK A01 T00281053  RH  055%=      5-min Rain = 0
KEA1 140521Z 01008KT 03/M05 A3012 RMK A01 T00281053  RH  055%=      5-min Rain = 0
KEA1 140522Z 01008KT 03/M05 A3012 RMK A01 T00281053  RH  055%=      5-min Rain = 0
KEA1 140523Z 01008KT 03/M05 A3012 RMK A01 T00271053  RH  055%=      5-min Rain = 0
KEA1 140524Z 00008KT 03/M05 A3012 RMK A01 T00281052  RH  056%=      5-min Rain = 0
KEA1 140525Z 00008KT 03/M05 A3012 RMK A01 T00271053  RH  056%=      5-min Rain = 0
KEA1 140526Z 00007KT 03/M05 A3012 RMK A01 T00271052  RH  056%=      5-min Rain = 0
KEA1 140527Z 00007KT 03/M05 A3012 RMK A01 T00261052  RH  056%=      5-min Rain = 0
KEA1 140528Z 00007KT 03/M05 A3012 RMK A01 T00271052  RH  056%=      5-min Rain = 0
KEA1 140529Z 36007KT 03/M05 A3012 RMK A01 T00271052  RH  056%=      5-min Rain = 0
KEA1 140530Z 36006KT 03/M05 A3012 RMK A01 T00271052  RH  056%=      5-min Rain = 0
KEA1 140531Z 35006KT 03/M05 A3012 RMK A01 T00271052  RH  056%=      5-min Rain = 0
KEA1 140532Z 35006KT 03/M05 A3012 RMK A01 T00271053  RH  056%=      5-min Rain = 0
KEA1 140533Z 35006KT 03/M05 A3012 RMK A01 T00271052  RH  056%=      5-min Rain = 0
KEA1 140534Z 35006KT 03/M05 A3012 RMK A01 T00271052  RH  056%=      5-min Rain = 0
KEA1 140535Z 36007KT 03/M05 A3013 RMK A01 T00261052  RH  056%=      5-min Rain = 0
KEA1 140536Z 00007KT 03/M05 A3013 RMK A01 T00271052  RH  056%=      5-min Rain = 0
KEA1 140537Z 00007KT 03/M05 A3013 RMK A01 T00261052  RH  056%=      5-min Rain = 0
KEA1 140538Z 00007KT 03/M05 A3013 RMK A01 T00261052  RH  056%=      5-min Rain = 0
KEA1 140539Z 00007KT 03/M05 A3013 RMK A01 T00261053  RH  056%=      5-min Rain = 0
KEA1 140540Z 00007KT 03/M05 A3013 RMK A01 T00261053  RH  056%=      5-min Rain = 0
KEA1 140541Z 00007KT 03/M05 A3013 RMK A01 T00261053  RH  056%=      5-min Rain = 0
KEA1 140542Z 00007KT 03/M05 A3013 RMK A01 T00251053  RH  056%=      5-min Rain = 0
KEA1 140543Z 00007KT 03/M05 A3013 RMK A01 T00251053  RH  056%=      5-min Rain = 0
KEA1 140544Z 00007KT 02/M05 A3013 RMK A01 T00241054  RH  056%=      5-min Rain = 0
KEA1 140545Z 00007KT 02/M05 A3013 RMK A01 T00231054  RH  057%=      5-min Rain = 0
KEA1 140546Z 00008KT 02/M05 A3013 RMK A01 T00231053  RH  057%=      5-min Rain = 0
KEA1 140547Z 00008KT 02/M05 A3013 RMK A01 T00231054  RH  057%=      5-min Rain = 0
KEA1 140548Z 00008KT 02/M06 A3013 RMK A01 T00211055  RH  057%=      5-min Rain = 0
KEA1 140549Z 00008KT 02/M06 A3013 RMK A01 T00191056  RH  057%=      5-min Rain = 0
KEA1 140550Z 00008KT 02/M06 A3013 RMK A01 T00181056  RH  058%=      5-min Rain = 0
KEA1 140551Z 36008KT 02/M06 A3013 RMK A01 T00171056  RH  059%=      5-min Rain = 0
KEA1 140552Z 36008KT 02/M06 A3013 RMK A01 T00161055  RH  059%=      5-min Rain = 0
KEA1 140553Z 36008KT 02/M06 A3013 RMK A01 T00161055  RH  059%=      5-min Rain = 0
KEA1 140554Z 36008KT 02/M06 A3013 RMK A01 T00161055  RH  059%=      5-min Rain = 0
KEA1 140555Z 36008KT 02/M05 A3013 RMK A01 T00161054  RH  060%=      5-min Rain = 0
KEA1 140556Z 35008KT 02/M05 A3013 RMK A01 T00151054  RH  060%=      5-min Rain = 0
KEA1 140557Z 35008KT 02/M06 A3013 RMK A01 T00151055  RH  060%=      5-min Rain = 0
KEA1 140558Z 35007KT 02/M06 A3013 RMK A01 T00151055  RH  060%=      5-min Rain = 0
KEA1 140559Z 35007KT 02/M05 A3013 RMK A01 T00151054  RH  060%=      5-min Rain = 0

Page generated in 0.143 seconds.